Wetterdaten: Samstag, 05.10.2019
Datum Zeit Temp. Aussen Temp. o. S. +5cm Feuchte Auss Luftdruck Regen Sonnenschein Regendauer Solar Windben Empfang
05.10.2019 00:00 10,9 C 9,4 C 0,0 C 97 % 1007,2 hPa 0,0 l/m 0 min 0 min 0 W/m 9,7 km/h (2 Bft) 97,87 %
05.10.2019 00:02 10,8 C 9,4 C 0,0 C 97 % 1007,2 hPa 0,0 l/m 0 min 0 min 0 W/m 6,4 km/h (2 Bft) 97,37 %
05.10.2019 00:04 10,8 C 9,4 C 0,0 C 97 % 1007,2 hPa 0,0 l/m 0 min 0 min 0 W/m 6,4 km/h (2 Bft) 97,87 %
05.10.2019 00:08 10,7 C 9,4 C 0,0 C 97 % 1007,3 hPa 0,0 l/m 0 min 0 min 0 W/m 9,7 km/h (2 Bft) 97,87 %
05.10.2019 00:10 10,7 C 9,4 C 0,0 C 97 % 1007,3 hPa 0,0 l/m 0 min 0 min 0 W/m 12,9 km/h (3 Bft) 93,62 %
05.10.2019 00:12 10,7 C 9,4 C 0,0 C 97 % 1007,3 hPa 0,0 l/m 0 min 0 min 0 W/m 6,4 km/h (2 Bft) 95,74 %
05.10.2019 00:14 10,6 C 9,4 C 0,0 C 97 % 1007,3 hPa 0,0 l/m 0 min 0 min 0 W/m 12,9 km/h (3 Bft) 95,65 %
05.10.2019 00:16 10,6 C 9,4 C 0,0 C 97 % 1007,3 hPa 0,0 l/m 0 min 0 min 0 W/m 3,2 km/h (1 Bft) 93,62 %
05.10.2019 00:18 10,6 C 9,4 C 0,0 C 98 % 1007,3 hPa 0,0 l/m 0 min 0 min 0 W/m 6,4 km/h (2 Bft) 95,74 %
05.10.2019 00:20 10,6 C 9,4 C 0,0 C 98 % 1007,4 hPa 0,0 l/m 0 min 0 min 0 W/m 9,7 km/h (2 Bft) 97,87 %
05.10.2019 00:22 10,5 C 9,4 C 0,0 C 98 % 1007,4 hPa 0,0 l/m 0 min 0 min 0 W/m 9,7 km/h (2 Bft) 95,74 %
05.10.2019 00:24 10,5 C 9,4 C 0,0 C 98 % 1007,4 hPa 0,0 l/m 0 min 0 min 0 W/m 6,4 km/h (2 Bft) 91,49 %
05.10.2019 00:26 10,4 C 9,4 C 0,0 C 98 % 1007,5 hPa 0,0 l/m 0 min 0 min 0 W/m 3,2 km/h (1 Bft) 95,65 %
05.10.2019 00:28 10,4 C 8,9 C 0,0 C 97 % 1007,5 hPa 0,0 l/m 0 min 0 min 0 W/m 12,9 km/h (3 Bft) 95,74 %
05.10.2019 00:30 10,4 C 8,9 C 0,0 C 98 % 1007,5 hPa 0,0 l/m 0 min 0 min 0 W/m 6,4 km/h (2 Bft) 97,87 %
05.10.2019 00:32 10,4 C 8,9 C 0,0 C 98 % 1007,5 hPa 0,0 l/m 0 min 0 min 0 W/m 6,4 km/h (2 Bft) 97,87 %
05.10.2019 00:34 10,3 C 8,9 C 0,0 C 98 % 1007,6 hPa 0,0 l/m 0 min 0 min 0 W/m 16,1 km/h (3 Bft) 97,87 %
05.10.2019 00:36 10,3 C 8,9 C 0,0 C 98 % 1007,7 hPa 0,0 l/m 0 min 0 min 0 W/m 6,4 km/h (2 Bft) 97,87 %
05.10.2019 00:38 10,3 C 8,9 C 0,0 C 98 % 1007,6 hPa 0,0 l/m 0 min 0 min 0 W/m 3,2 km/h (1 Bft) 100,00 %
05.10.2019 00:40 10,3 C 8,9 C 0,0 C 98 % 1007,6 hPa 0,0 l/m 0 min 0 min 0 W/m 12,9 km/h (3 Bft) 97,87 %
05.10.2019 00:42 10,2 C 8,9 C 0,0 C 98 % 1007,6 hPa 0,0 l/m 0 min 0 min 0 W/m 9,7 km/h (2 Bft) 95,74 %
05.10.2019 00:44 10,2 C 8,9 C 0,0 C 98 % 1007,7 hPa 0,0 l/m 0 min 0 min 0 W/m 6,4 km/h (2 Bft) 97,87 %
05.10.2019 00:46 10,2 C 8,9 C 0,0 C 98 % 1007,7 hPa 0,0 l/m 0 min 0 min 0 W/m 9,7 km/h (2 Bft) 100,00 %
05.10.2019 00:48 10,1 C 8,9 C 0,0 C 98 % 1007,7 hPa 0,0 l/m 0 min 0 min 0 W/m 3,2 km/h (1 Bft) 97,87 %
05.10.2019 00:50 10,1 C 8,9 C 0,0 C 98 % 1007,7 hPa 0,0 l/m 0 min 0 min 0 W/m 6,4 km/h (2 Bft) 97,83 %
05.10.2019 00:52 10,1 C 8,9 C 0,0 C 98 % 1007,7 hPa 0,0 l/m 0 min 0 min 0 W/m 9,7 km/h (2 Bft) 97,87 %
05.10.2019 00:54 10,1 C 8,9 C 0,0 C 98 % 1007,8 hPa 0,0 l/m 0 min 0 min 0 W/m 6,4 km/h (2 Bft) 97,87 %
05.10.2019 00:56 10,1 C 8,9 C 0,0 C 98 % 1007,8 hPa 0,0 l/m 0 min 2 min 0 W/m 0,0 km/h (0 Bft) 97,87 %
05.10.2019 00:58 10,1 C 8,9 C 0,0 C 98 % 1007,8 hPa 0,0 l/m 0 min 2 min 0 W/m 0,0 km/h (0 Bft) 100,00 %
05.10.2019 01:00 10,0 C 8,9 C 0,0 C 98 % 1007,8 hPa 0,0 l/m 0 min 0 min 0 W/m 0,0 km/h (0 Bft) 97,83 %
05.10.2019 01:02 10,0 C 8,9 C 0,0 C 98 % 1007,9 hPa 0,0 l/m 0 min 0 min 0 W/m 3,2 km/h (1 Bft) 100,00 %
05.10.2019 01:04 10,0 C 8,9 C 0,0 C 98 % 1007,9 hPa 0,0 l/m 0 min 2 min 0 W/m 6,4 km/h (2 Bft) 97,87 %
05.10.2019 01:06 10,0 C 8,9 C 0,0 C 98 % 1007,9 hPa 0,2 l/m 0 min 2 min 0 W/m 3,2 km/h (1 Bft) 97,87 %
05.10.2019 01:08 10,0 C 8,9 C 0,0 C 98 % 1008,0 hPa 0,0 l/m 0 min 2 min 0 W/m 0,0 km/h (0 Bft) 95,74 %
05.10.2019 01:10 10,0 C 8,9 C 0,0 C 98 % 1008,0 hPa 0,0 l/m 0 min 2 min 0 W/m 6,4 km/h (2 Bft) 95,74 %
05.10.2019 01:12 9,9 C 8,9 C 0,0 C 98 % 1008,1 hPa 0,0 l/m 0 min 2 min 0 W/m 3,2 km/h (1 Bft) 97,83 %
05.10.2019 01:14 9,9 C 8,9 C 0,0 C 98 % 1008,1 hPa 0,0 l/m 0 min 2 min 0 W/m 3,2 km/h (1 Bft) 97,87 %
05.10.2019 01:16 9,9 C 8,9 C 0,0 C 98 % 1008,1 hPa 0,0 l/m 0 min 2 min 0 W/m 3,2 km/h (1 Bft) 95,74 %
05.10.2019 01:18 9,9 C 8,9 C 0,0 C 98 % 1008,1 hPa 0,0 l/m 0 min 2 min 0 W/m 6,4 km/h (2 Bft) 97,87 %
05.10.2019 01:20 9,9 C 8,9 C 0,0 C 98 % 1008,1 hPa 0,0 l/m 0 min 2 min 0 W/m 3,2 km/h (1 Bft) 97,87 %
05.10.2019 01:22 9,9 C 8,9 C 0,0 C 98 % 1008,2 hPa 0,0 l/m 0 min 2 min 0 W/m 3,2 km/h (1 Bft) 97,87 %
05.10.2019 01:24 9,9 C 8,9 C 0,0 C 98 % 1008,2 hPa 0,0 l/m 0 min 2 min 0 W/m 6,4 km/h (2 Bft) 95,74 %
05.10.2019 01:26 9,9 C 8,9 C 0,0 C 98 % 1008,3 hPa 0,0 l/m 0 min 0 min 0 W/m 3,2 km/h (1 Bft) 97,83 %
05.10.2019 01:28 9,9 C 8,9 C 0,0 C 98 % 1008,3 hPa 0,0 l/m 0 min 0 min 0 W/m 3,2 km/h (1 Bft) 97,87 %
05.10.2019 01:30 9,9 C 8,9 C 0,0 C 98 % 1008,3 hPa 0,0 l/m 0 min 0 min 0 W/m 3,2 km/h (1 Bft) 97,87 %
05.10.2019 01:32 9,9 C 8,9 C 0,0 C 98 % 1008,3 hPa 0,0 l/m 0 min 0 min 0 W/m 3,2 km/h (1 Bft) 95,74 %
05.10.2019 01:34 9,9 C 8,9 C 0,0 C 98 % 1008,4 hPa 0,0 l/m 0 min 0 min 0 W/m 9,7 km/h (2 Bft) 97,87 %
05.10.2019 01:36 9,9 C 8,9 C 0,0 C 98 % 1008,4 hPa 0,0 l/m 0 min 0 min 0 W/m 9,7 km/h (2 Bft) 97,87 %
05.10.2019 01:38 9,9 C 8,9 C 0,0 C 98 % 1008,4 hPa 0,0 l/m 0 min 0 min 0 W/m 3,2 km/h (1 Bft) 97,83 %
05.10.2019 01:40 9,9 C 8,9 C 0,0 C 98 % 1008,4 hPa 0,0 l/m 0 min 0 min 0 W/m 3,2 km/h (1 Bft) 97,87 %
05.10.2019 01:42 9,9 C 8,9 C 0,0 C 98 % 1008,4 hPa 0,0 l/m 0 min 0 min 0 W/m 0,0 km/h (0 Bft) 97,87 %
05.10.2019 01:44 9,8 C 8,9 C 0,0 C 98 % 1008,5 hPa 0,0 l/m 0 min 0 min 0 W/m 0,0 km/h (0 Bft) 97,87 %
05.10.2019 01:46 9,9 C 8,9 C 0,0 C 98 % 1008,5 hPa 0,0 l/m 0 min 0 min 0 W/m 3,2 km/h (1 Bft) 97,87 %
05.10.2019 01:48 9,8 C 8,9 C 0,0 C 98 % 1008,6 hPa 0,0 l/m 0 min 0 min 0 W/m 3,2 km/h (1 Bft) 97,83 %
05.10.2019 01:50 9,8 C 8,9 C 0,0 C 98 % 1008,6 hPa 0,0 l/m 0 min 0 min 0 W/m 6,4 km/h (2 Bft) 97,87 %
05.10.2019 01:52 9,8 C 8,9 C 0,0 C 98 % 1008,6 hPa 0,0 l/m 0 min 0 min 0 W/m 3,2 km/h (1 Bft) 97,87 %
05.10.2019 01:54 9,9 C 8,9 C 0,0 C 98 % 1008,6 hPa 0,0 l/m 0 min 0 min 0 W/m 3,2 km/h (1 Bft) 95,74 %
05.10.2019 01:56 9,8 C 8,9 C 0,0 C 98 % 1008,7 hPa 0,0 l/m 0 min 0 min 0 W/m 6,4 km/h (2 Bft) 97,87 %
05.10.2019 01:58 9,8 C 8,9 C 0,0 C 98 % 1008,7 hPa 0,0 l/m 0 min 0 min 0 W/m 3,2 km/h (1 Bft) 97,87 %
05.10.2019 02:00 9,8 C 8,9 C 0,0 C 98 % 1008,8 hPa 0,0 l/m 0 min 0 min 0 W/m 3,2 km/h (1 Bft) 100,00 %
05.10.2019 02:02 9,8 C 8,9 C 0,0 C 98 % 1008,8 hPa 0,0 l/m 0 min 0 min 0 W/m 0,0 km/h (0 Bft) 97,87 %
05.10.2019 02:04 9,8 C 8,9 C 0,0 C 98 % 1008,8 hPa 0,0 l/m 0 min 0 min 0 W/m 0,0 km/h (0 Bft) 100,00 %
05.10.2019 02:06 9,8 C 8,9 C 0,0 C 98 % 1008,9 hPa 0,0 l/m 0 min 0 min 0 W/m 3,2 km/h (1 Bft) 100,00 %
05.10.2019 02:08 9,8 C 8,9 C 0,0 C 98 % 1008,9 hPa 0,0 l/m 0 min 0 min 0 W/m 3,2 km/h (1 Bft) 100,00 %
05.10.2019 02:10 9,8 C 8,9 C 0,0 C 98 % 1008,9 hPa 0,0 l/m 0 min 0 min 0 W/m 3,2 km/h (1 Bft) 100,00 %
05.10.2019 02:12 9,8 C 8,9 C 0,0 C 98 % 1009,0 hPa 0,0 l/m 0 min 0 min 0 W/m 0,0 km/h (0 Bft) 97,83 %
05.10.2019 02:14 9,8 C 8,9 C 0,0 C 98 % 1009,0 hPa 0,0 l/m 0 min 0 min 0 W/m 3,2 km/h (1 Bft) 100,00 %
05.10.2019 02:16 9,8 C 8,9 C 0,0 C 98 % 1009,0 hPa 0,0 l/m 0 min 0 min 0 W/m 0,0 km/h (0 Bft) 100,00 %
05.10.2019 02:18 9,8 C 8,9 C 0,0 C 98 % 1009,1 hPa 0,0 l/m 0 min 0 min 0 W/m 3,2 km/h (1 Bft) 100,00 %
05.10.2019 02:20 9,8 C 8,9 C 0,0 C 98 % 1009,1 hPa 0,0 l/m 0 min 0 min 0 W/m 3,2 km/h (1 Bft) 97,87 %
05.10.2019 02:22 9,8 C 8,9 C 0,0 C 98 % 1009,1 hPa 0,0 l/m 0 min 0 min 0 W/m 0,0 km/h (0 Bft) 100,00 %
05.10.2019 02:24 9,8 C 8,9 C 0,0 C 98 % 1009,1 hPa 0,0 l/m 0 min 0 min 0 W/m 3,2 km/h (1 Bft) 100,00 %
05.10.2019 02:26 9,8 C 8,9 C 0,0 C 98 % 1009,2 hPa 0,0 l/m 0 min 0 min 0 W/m 3,2 km/h (1 Bft) 97,87 %
05.10.2019 02:28 9,7 C 8,9 C 0,0 C 99 % 1009,2 hPa 0,0 l/m 0 min 0 min 0 W/m 3,2 km/h (1 Bft) 97,87 %
05.10.2019 02:30 9,7 C 8,9 C 0,0 C 99 % 1009,2 hPa 0,0 l/m 0 min 0 min 0 W/m 0,0 km/h (0 Bft) 100,00 %
05.10.2019 02:32 9,7 C 8,9 C 0,0 C 99 % 1009,3 hPa 0,0 l/m 0 min 0 min 0 W/m 0,0 km/h (0 Bft) 97,87 %
05.10.2019 02:34 9,7 C 8,3 C 0,0 C 99 % 1009,3 hPa 0,0 l/m 0 min 0 min 0 W/m 9,7 km/h (2 Bft) 97,83 %
05.10.2019 02:36 9,7 C 8,3 C 0,0 C 99 % 1009,4 hPa 0,0 l/m 0 min 0 min 0 W/m 6,4 km/h (2 Bft) 97,87 %
05.10.2019 02:38 9,7 C 8,3 C 0,0 C 99 % 1009,3 hPa 0,0 l/m 0 min 0 min 0 W/m 3,2 km/h (1 Bft) 97,87 %
05.10.2019 02:40 9,7 C 8,3 C 0,0 C 99 % 1009,4 hPa 0,0 l/m 0 min 0 min 0 W/m 3,2 km/h (1 Bft) 97,87 %
05.10.2019 02:42 9,7 C 8,3 C 0,0 C 99 % 1009,4 hPa 0,0 l/m 0 min 0 min 0 W/m 0,0 km/h (0 Bft) 97,87 %
05.10.2019 02:44 9,7 C 8,3 C 0,0 C 99 % 1009,4 hPa 0,0 l/m 0 min 0 min 0 W/m 3,2 km/h (1 Bft) 97,87 %
05.10.2019 02:46 9,7 C 8,3 C 0,0 C 99 % 1009,4 hPa 0,0 l/m 0 min 0 min 0 W/m 3,2 km/h (1 Bft) 97,83 %
05.10.2019 02:48 9,7 C 8,3 C 0,0 C 99 % 1009,4 hPa 0,0 l/m 0 min 0 min 0 W/m 0,0 km/h (0 Bft) 97,87 %
05.10.2019 02:50 9,7 C 8,3 C 0,0 C 99 % 1009,4 hPa 0,0 l/m 0 min 0 min 0 W/m 3,2 km/h (1 Bft) 97,87 %
05.10.2019 02:52 9,7 C 8,3 C 0,0 C 99 % 1009,4 hPa 0,0 l/m 0 min 0 min 0 W/m 3,2 km/h (1 Bft) 95,74 %
05.10.2019 02:54 9,6 C 8,3 C 0,0 C 99 % 1009,4 hPa 0,0 l/m 0 min 0 min 0 W/m 3,2 km/h (1 Bft) 95,74 %
05.10.2019 02:56 9,7 C 8,3 C 0,0 C 99 % 1009,4 hPa 0,0 l/m 0 min 0 min 0 W/m 3,2 km/h (1 Bft) 95,74 %
05.10.2019 02:58 9,6 C 8,3 C 0,0 C 99 % 1009,4 hPa 0,0 l/m 0 min 0 min 0 W/m 0,0 km/h (0 Bft) 93,48 %
05.10.2019 03:00 9,6 C 8,3 C 0,0 C 99 % 1009,4 hPa 0,0 l/m 0 min 0 min 0 W/m 3,2 km/h (1 Bft) 95,74 %
05.10.2019 03:02 9,6 C 8,3 C 0,0 C 99 % 1009,4 hPa 0,0 l/m 0 min 0 min 0 W/m 0,0 km/h (0 Bft) 91,49 %
05.10.2019 03:04 9,6 C 8,3 C 0,0 C 99 % 1009,4 hPa 0,0 l/m 0 min 0 min 0 W/m 6,4 km/h (2 Bft) 95,74 %
05.10.2019 03:06 9,6 C 8,3 C 0,0 C 99 % 1009,5 hPa 0,0 l/m 0 min 0 min 0 W/m 0,0 km/h (0 Bft) 93,62 %
05.10.2019 03:08 9,6 C 8,3 C 0,0 C 99 % 1009,5 hPa 0,0 l/m 0 min 0 min 0 W/m 6,4 km/h (2 Bft) 95,74 %
05.10.2019 03:10 9,6 C 8,3 C 0,0 C 99 % 1009,5 hPa 0,0 l/m 0 min 0 min 0 W/m 0,0 km/h (0 Bft) 95,65 %
05.10.2019 03:12 9,5 C 8,3 C 0,0 C 99 % 1009,5 hPa 0,0 l/m 0 min 0 min 0 W/m 3,2 km/h (1 Bft) 95,74 %
05.10.2019 03:14 9,5 C 8,3 C 0,0 C 99 % 1009,6 hPa 0,0 l/m 0 min 0 min 0 W/m 0,0 km/h (0 Bft) 95,74 %
05.10.2019 03:16 9,5 C 8,3 C 0,0 C 99 % 1009,6 hPa 0,0 l/m 0 min 0 min 0 W/m 3,2 km/h (1 Bft) 95,74 %
05.10.2019 03:18 9,5 C 8,3 C 0,0 C 99 % 1009,7 hPa 0,0 l/m 0 min 0 min 0 W/m 0,0 km/h (0 Bft) 93,62 %
05.10.2019 03:20 9,5 C 8,3 C 0,0 C 99 % 1009,7 hPa 0,0 l/m 0 min 0 min 0 W/m 9,7 km/h (2 Bft) 91,49 %
05.10.2019 03:22 9,5 C 8,3 C 0,0 C 99 % 1009,7 hPa 0,0 l/m 0 min 0 min 0 W/m 3,2 km/h (1 Bft) 95,65 %
05.10.2019 03:24 9,5 C 8,3 C 0,0 C 99 % 1009,7 hPa 0,0 l/m 0 min 0 min 0 W/m 3,2 km/h (1 Bft) 95,74 %
05.10.2019 03:26 9,5 C 8,3 C 0,0 C 99 % 1009,7 hPa 0,0 l/m 0 min 0 min 0 W/m 0,0 km/h (0 Bft) 95,74 %
05.10.2019 03:28 9,5 C 8,3 C 0,0 C 99 % 1009,8 hPa 0,0 l/m 0 min 0 min 0 W/m 6,4 km/h (2 Bft) 97,87 %
05.10.2019 03:30 9,5 C 8,3 C 0,0 C 99 % 1009,8 hPa 0,0 l/m 0 min 0 min 0 W/m 3,2 km/h (1 Bft) 97,87 %
05.10.2019 03:32 9,5 C 8,3 C 0,0 C 99 % 1009,8 hPa 0,0 l/m 0 min 0 min 0 W/m 3,2 km/h (1 Bft) 95,65 %
05.10.2019 03:34 9,5 C 8,3 C 0,0 C 99 % 1009,8 hPa 0,0 l/m 0 min 0 min 0 W/m 12,9 km/h (3 Bft) 97,87 %
05.10.2019 03:36 9,5 C 8,3 C 0,0 C 99 % 1009,8 hPa 0,0 l/m 0 min 0 min 0 W/m 0,0 km/h (0 Bft) 97,87 %
05.10.2019 03:38 9,5 C 8,3 C 0,0 C 99 % 1009,9 hPa 0,0 l/m 0 min 0 min 0 W/m 0,0 km/h (0 Bft) 100,00 %
05.10.2019 03:40 9,5 C 8,3 C 0,0 C 99 % 1009,9 hPa 0,0 l/m 0 min 0 min 0 W/m 3,2 km/h (1 Bft) 97,87 %
05.10.2019 03:42 9,5 C 8,3 C 0,0 C 99 % 1009,9 hPa 0,0 l/m 0 min 0 min 0 W/m 0,0 km/h (0 Bft) 100,00 %
05.10.2019 03:44 9,5 C 8,3 C 0,0 C 99 % 1010,0 hPa 0,0 l/m 0 min 0 min 0 W/m 0,0 km/h (0 Bft) 100,00 %
05.10.2019 03:46 9,5 C 8,3 C 0,0 C 99 % 1010,0 hPa 0,0 l/m 0 min 0 min 0 W/m 3,2 km/h (1 Bft) 100,00 %
05.10.2019 03:48 9,5 C 8,3 C 0,0 C 99 % 1010,0 hPa 0,0 l/m 0 min 0 min 0 W/m 3,2 km/h (1 Bft) 97,87 %
05.10.2019 03:50 9,5 C 8,3 C 0,0 C 99 % 1010,1 hPa 0,0 l/m 0 min 0 min 0 W/m 0,0 km/h (0 Bft) 97,87 %
05.10.2019 03:52 9,5 C 8,3 C 0,0 C 99 % 1010,1 hPa 0,0 l/m 0 min 0 min 0 W/m 0,0 km/h (0 Bft) 100,00 %
05.10.2019 03:54 9,5 C 8,3 C 0,0 C 99 % 1010,0 hPa 0,0 l/m 0 min 0 min 0 W/m 9,7 km/h (2 Bft) 100,00 %
05.10.2019 03:56 9,5 C 8,3 C 0,0 C 99 % 1010,0 hPa 0,0 l/m 0 min 0 min 0 W/m 0,0 km/h (0 Bft) 100,00 %
05.10.2019 03:58 9,5 C 8,3 C 0,0 C 99 % 1010,0 hPa 0,0 l/m 0 min 0 min 0 W/m 0,0 km/h (0 Bft) 97,87 %
05.10.2019 04:00 9,5 C 8,3 C 0,0 C 99 % 1010,1 hPa 0,0 l/m 0 min 0 min 0 W/m 0,0 km/h (0 Bft) 100,00 %
05.10.2019 04:02 9,4 C 8,3 C 0,0 C 99 % 1010,1 hPa 0,0 l/m 0 min 0 min 0 W/m 0,0 km/h (0 Bft) 100,00 %
05.10.2019 04:04 9,4 C 8,3 C 0,0 C 99 % 1010,1 hPa 0,0 l/m 0 min 0 min 0 W/m 6,4 km/h (2 Bft) 100,00 %
05.10.2019 04:06 9,4 C 8,3 C 0,0 C 99 % 1010,2 hPa 0,0 l/m 0 min 0 min 0 W/m 0,0 km/h (0 Bft) 100,00 %
05.10.2019 04:08 9,4 C 8,3 C 0,0 C 99 % 1010,2 hPa 0,0 l/m 0 min 0 min 0 W/m 0,0 km/h (0 Bft) 100,00 %
05.10.2019 04:10 9,4 C 8,3 C 0,0 C 99 % 1010,1 hPa 0,0 l/m 0 min 0 min 0 W/m 0,0 km/h (0 Bft) 100,00 %
05.10.2019 04:12 9,4 C 8,3 C 0,0 C 99 % 1010,1 hPa 0,0 l/m 0 min 0 min 0 W/m 0,0 km/h (0 Bft) 100,00 %
05.10.2019 04:14 9,4 C 8,3 C 0,0 C 99 % 1010,1 hPa 0,0 l/m 0 min 0 min 0 W/m 3,2 km/h (1 Bft) 100,00 %
05.10.2019 04:16 9,4 C 8,3 C 0,0 C 99 % 1010,2 hPa 0,0 l/m 0 min 0 min 0 W/m 0,0 km/h (0 Bft) 100,00 %
05.10.2019 04:18 9,4 C 8,3 C 0,0 C 99 % 1010,3 hPa 0,0 l/m 0 min 0 min 0 W/m 0,0 km/h (0 Bft) 100,00 %
05.10.2019 04:20 9,4 C 8,3 C 0,0 C 99 % 1010,3 hPa 0,0 l/m 0 min 0 min 0 W/m 0,0 km/h (0 Bft) 97,83 %
05.10.2019 04:22 9,4 C 8,3 C 0,0 C 99 % 1010,3 hPa 0,0 l/m 0 min 0 min 0 W/m 0,0 km/h (0 Bft) 100,00 %
05.10.2019 04:24 9,4 C 8,3 C 0,0 C 99 % 1010,4 hPa 0,0 l/m 0 min 0 min 0 W/m 0,0 km/h (0 Bft) 100,00 %
05.10.2019 04:26 9,4 C 8,3 C 0,0 C 99 % 1010,3 hPa 0,0 l/m 0 min 0 min 0 W/m 3,2 km/h (1 Bft) 100,00 %
05.10.2019 04:28 9,4 C 8,3 C 0,0 C 99 % 1010,4 hPa 0,0 l/m 0 min 0 min 0 W/m 3,2 km/h (1 Bft) 97,87 %
05.10.2019 04:30 9,4 C 8,3 C 0,0 C 99 % 1010,4 hPa 0,0 l/m 0 min 0 min 0 W/m 0,0 km/h (0 Bft) 97,87 %
05.10.2019 04:32 9,4 C 8,3 C 0,0 C 99 % 1010,6 hPa 0,0 l/m 0 min 0 min 0 W/m 3,2 km/h (1 Bft) 97,83 %
05.10.2019 04:34 9,4 C 8,3 C 0,0 C 99 % 1010,6 hPa 0,0 l/m 0 min 0 min 0 W/m 0,0 km/h (0 Bft) 97,87 %
05.10.2019 04:36 9,4 C 8,3 C 0,0 C 99 % 1010,7 hPa 0,0 l/m 0 min 0 min 0 W/m 3,2 km/h (1 Bft) 95,74 %
05.10.2019 04:38 9,4 C 8,3 C 0,0 C 99 % 1010,6 hPa 0,0 l/m 0 min 0 min 0 W/m 3,2 km/h (1 Bft) 97,87 %
05.10.2019 04:40 9,4 C 8,3 C 0,0 C 99 % 1010,6 hPa 0,0 l/m 0 min 0 min 0 W/m 0,0 km/h (0 Bft) 97,87 %
05.10.2019 04:42 9,4 C 8,3 C 0,0 C 99 % 1010,7 hPa 0,0 l/m 0 min 0 min 0 W/m 0,0 km/h (0 Bft) 97,83 %
05.10.2019 04:44 9,4 C 8,3 C 0,0 C 99 % 1010,7 hPa 0,0 l/m 0 min 0 min 0 W/m 0,0 km/h (0 Bft) 97,87 %
05.10.2019 04:46 9,3 C 8,3 C 0,0 C 99 % 1010,8 hPa 0,0 l/m 0 min 0 min 0 W/m 3,2 km/h (1 Bft) 97,87 %
05.10.2019 04:48 9,3 C 8,3 C 0,0 C 99 % 1010,8 hPa 0,0 l/m 0 min 0 min 0 W/m 0,0 km/h (0 Bft) 97,87 %
05.10.2019 04:50 9,3 C 8,3 C 0,0 C 99 % 1010,8 hPa 0,0 l/m 0 min 0 min 0 W/m 0,0 km/h (0 Bft) 97,87 %
05.10.2019 04:52 9,3 C 8,3 C 0,0 C 99 % 1010,8 hPa 0,0 l/m 0 min 0 min 0 W/m 3,2 km/h (1 Bft) 95,74 %
05.10.2019 04:54 9,3 C 8,3 C 0,0 C 99 % 1010,9 hPa 0,0 l/m 0 min 0 min 0 W/m 0,0 km/h (0 Bft) 97,83 %
05.10.2019 04:56 9,3 C 8,3 C 0,0 C 99 % 1010,9 hPa 0,0 l/m 0 min 0 min 0 W/m 9,7 km/h (2 Bft) 97,87 %
05.10.2019 04:58 9,3 C 8,3 C 0,0 C 99 % 1010,9 hPa 0,0 l/m 0 min 0 min 0 W/m 3,2 km/h (1 Bft) 97,87 %
05.10.2019 05:00 9,3 C 8,3 C 0,0 C 99 % 1011,0 hPa 0,0 l/m 0 min 0 min 0 W/m 0,0 km/h (0 Bft) 97,87 %
05.10.2019 05:02 9,3 C 8,3 C 0,0 C 99 % 1011,0 hPa 0,0 l/m 0 min 0 min 0 W/m 0,0 km/h (0 Bft) 97,87 %
05.10.2019 05:04 9,3 C 8,3 C 0,0 C 99 % 1011,1 hPa 0,0 l/m 0 min 0 min 0 W/m 3,2 km/h (1 Bft) 97,87 %
05.10.2019 05:06 9,3 C 8,3 C 0,0 C 99 % 1011,1 hPa 0,0 l/m 0 min 0 min 0 W/m 0,0 km/h (0 Bft) 97,83 %
05.10.2019 05:08 9,2 C 8,3 C 0,0 C 99 % 1011,1 hPa 0,0 l/m 0 min 0 min 0 W/m 0,0 km/h (0 Bft) 97,87 %
05.10.2019 05:10 9,2 C 8,3 C 0,0 C 99 % 1011,1 hPa 0,0 l/m 0 min 0 min 0 W/m 0,0 km/h (0 Bft) 97,87 %
05.10.2019 05:12 9,2 C 8,3 C 0,0 C 99 % 1011,1 hPa 0,0 l/m 0 min 0 min 0 W/m 0,0 km/h (0 Bft) 95,74 %
05.10.2019 05:14 9,2 C 8,3 C 0,0 C 99 % 1011,1 hPa 0,0 l/m 0 min 0 min 0 W/m 0,0 km/h (0 Bft) 95,74 %
05.10.2019 05:16 9,2 C 8,3 C 0,0 C 99 % 1011,1 hPa 0,0 l/m 0 min 0 min 0 W/m 3,2 km/h (1 Bft) 97,87 %
05.10.2019 05:18 9,2 C 8,3 C 0,0 C 99 % 1011,1 hPa 0,0 l/m 0 min 0 min 0 W/m 0,0 km/h (0 Bft) 95,65 %
05.10.2019 05:20 9,2 C 7,8 C 0,0 C 99 % 1011,2 hPa 0,0 l/m 0 min 0 min 0 W/m 0,0 km/h (0 Bft) 93,62 %
05.10.2019 05:22 9,2 C 7,8 C 0,0 C 99 % 1011,2 hPa 0,0 l/m 0 min 0 min 0 W/m 0,0 km/h (0 Bft) 97,87 %
05.10.2019 05:24 9,2 C 7,8 C 0,0 C 99 % 1011,3 hPa 0,0 l/m 0 min 0 min 0 W/m 0,0 km/h (0 Bft) 95,74 %
05.10.2019 05:26 9,1 C 7,8 C 0,0 C 99 % 1011,3 hPa 0,0 l/m 0 min 0 min 0 W/m 0,0 km/h (0 Bft) 95,74 %
05.10.2019 05:28 9,1 C 7,8 C 0,0 C 99 % 1011,4 hPa 0,0 l/m 0 min 0 min 0 W/m 0,0 km/h (0 Bft) 95,74 %
05.10.2019 05:30 9,1 C 7,8 C 0,0 C 99 % 1011,4 hPa 0,0 l/m 0 min 0 min 0 W/m 0,0 km/h (0 Bft) 95,65 %
05.10.2019 05:32 9,1 C 7,8 C 0,0 C 99 % 1011,4 hPa 0,0 l/m 0 min 0 min 0 W/m 0,0 km/h (0 Bft) 93,62 %
05.10.2019 05:34 9,1 C 7,8 C 0,0 C 99 % 1011,5 hPa 0,0 l/m 0 min 0 min 0 W/m 0,0 km/h (0 Bft) 95,74 %
05.10.2019 05:36 9,1 C 7,8 C 0,0 C 99 % 1011,6 hPa 0,0 l/m 0 min 0 min 0 W/m 0,0 km/h (0 Bft) 91,49 %
05.10.2019 05:38 9,1 C 7,8 C 0,0 C 99 % 1011,6 hPa 0,0 l/m 0 min 0 min 0 W/m 0,0 km/h (0 Bft) 91,49 %
05.10.2019 05:40 9,1 C 7,8 C 0,0 C 99 % 1011,6 hPa 0,0 l/m 0 min 0 min 0 W/m 0,0 km/h (0 Bft) 93,48 %
05.10.2019 05:42 9,1 C 7,8 C 0,0 C 99 % 1011,7 hPa 0,0 l/m 0 min 0 min 0 W/m 0,0 km/h (0 Bft) 93,62 %
05.10.2019 05:44 9,0 C 7,8 C 0,0 C 99 % 1011,7 hPa 0,0 l/m 0 min 0 min 0 W/m 0,0 km/h (0 Bft) 93,62 %
05.10.2019 05:46 9,0 C 7,8 C 0,0 C 99 % 1011,8 hPa 0,0 l/m 0 min 0 min 0 W/m 0,0 km/h (0 Bft) 95,74 %
05.10.2019 05:48 9,0 C 7,8 C 0,0 C 99 % 1011,8 hPa 0,0 l/m 0 min 0 min 0 W/m 0,0 km/h (0 Bft) 91,49 %
05.10.2019 05:50 9,0 C 7,8 C 0,0 C 99 % 1011,8 hPa 0,0 l/m 0 min 0 min 0 W/m 3,2 km/h (1 Bft) 95,74 %
05.10.2019 05:52 8,9 C 7,8 C 0,0 C 99 % 1011,9 hPa 0,0 l/m 0 min 0 min 0 W/m 0,0 km/h (0 Bft) 95,74 %
05.10.2019 05:54 8,9 C 7,8 C 0,0 C 99 % 1011,9 hPa 0,0 l/m 0 min 0 min 0 W/m 0,0 km/h (0 Bft) 93,48 %
05.10.2019 05:56 8,9 C 7,8 C 0,0 C 99 % 1011,8 hPa 0,0 l/m 0 min 0 min 0 W/m 3,2 km/h (1 Bft) 95,74 %
05.10.2019 05:58 8,9 C 7,8 C 0,0 C 99 % 1011,9 hPa 0,0 l/m 0 min 0 min 0 W/m 3,2 km/h (1 Bft) 95,74 %
05.10.2019 06:00 8,9 C 7,8 C 0,0 C 99 % 1011,8 hPa 0,0 l/m 0 min 0 min 0 W/m 9,7 km/h (2 Bft) 95,74 %
05.10.2019 06:02 8,8 C 7,8 C 0,0 C 99 % 1011,9 hPa 0,0 l/m 0 min 0 min 0 W/m 6,4 km/h (2 Bft) 93,62 %
05.10.2019 06:04 8,8 C 7,8 C 0,0 C 99 % 1011,9 hPa 0,0 l/m 0 min 0 min 0 W/m 6,4 km/h (2 Bft) 97,83 %
05.10.2019 06:08 8,8 C 7,8 C 0,0 C 99 % 1011,9 hPa 0,0 l/m 0 min 0 min 0 W/m 3,2 km/h (1 Bft) 95,74 %
05.10.2019 06:10 8,8 C 7,8 C 0,0 C 99 % 1011,9 hPa 0,0 l/m 0 min 0 min 0 W/m 0,0 km/h (0 Bft) 97,87 %
05.10.2019 06:12 8,8 C 7,8 C 0,0 C 99 % 1012,0 hPa 0,0 l/m 0 min 0 min 0 W/m 3,2 km/h (1 Bft) 95,74 %
05.10.2019 06:14 8,8 C 7,8 C 0,0 C 99 % 1012,0 hPa 0,0 l/m 0 min 0 min 0 W/m 0,0 km/h (0 Bft) 100,00 %
05.10.2019 06:16 8,8 C 7,2 C 0,0 C 99 % 1012,0 hPa 0,0 l/m 0 min 0 min 0 W/m 0,0 km/h (0 Bft) 100,00 %
05.10.2019 06:18 8,7 C 7,2 C 0,0 C 99 % 1012,0 hPa 0,0 l/m 0 min 0 min 0 W/m 0,0 km/h (0 Bft) 100,00 %
05.10.2019 06:20 8,7 C 7,2 C 0,0 C 99 % 1012,0 hPa 0,0 l/m 0 min 0 min 0 W/m 0,0 km/h (0 Bft) 100,00 %
05.10.2019 06:22 8,7 C 7,2 C 0,0 C 99 % 1012,0 hPa 0,0 l/m 0 min 0 min 0 W/m 0,0 km/h (0 Bft) 97,87 %
05.10.2019 06:24 8,7 C 7,2 C 0,0 C 99 % 1012,1 hPa 0,0 l/m 0 min 0 min 0 W/m 0,0 km/h (0 Bft) 100,00 %
05.10.2019 06:26 8,6 C 7,2 C 0,0 C 99 % 1012,1 hPa 0,0 l/m 0 min 0 min 0 W/m 0,0 km/h (0 Bft) 97,87 %
05.10.2019 06:28 8,6 C 7,2 C 0,0 C 99 % 1012,1 hPa 0,0 l/m 0 min 0 min 0 W/m 0,0 km/h (0 Bft) 100,00 %
05.10.2019 06:30 8,6 C 6,7 C 0,0 C 99 % 1012,1 hPa 0,0 l/m 0 min 0 min 0 W/m 0,0 km/h (0 Bft) 100,00 %
05.10.2019 06:32 8,5 C 6,7 C 0,0 C 99 % 1012,1 hPa 0,0 l/m 0 min 0 min 0 W/m 3,2 km/h (1 Bft) 100,00 %
05.10.2019 06:34 8,5 C 6,7 C 0,0 C 99 % 1012,1 hPa 0,0 l/m 0 min 0 min 0 W/m 0,0 km/h (0 Bft) 97,87 %
05.10.2019 06:36 8,4 C 6,7 C 0,0 C 99 % 1012,1 hPa 0,0 l/m 0 min 0 min 0 W/m 0,0 km/h (0 Bft) 100,00 %
05.10.2019 06:38 8,4 C 6,7 C 0,0 C 99 % 1012,2 hPa 0,0 l/m 0 min 0 min 0 W/m 0,0 km/h (0 Bft) 97,87 %
05.10.2019 06:40 8,4 C 6,7 C 0,0 C 99 % 1012,2 hPa 0,0 l/m 0 min 0 min 0 W/m 0,0 km/h (0 Bft) 100,00 %
05.10.2019 06:42 8,3 C 6,1 C 0,0 C 99 % 1012,3 hPa 0,0 l/m 0 min 0 min 0 W/m 0,0 km/h (0 Bft) 97,87 %
05.10.2019 06:44 8,3 C 6,1 C 0,0 C 99 % 1012,3 hPa 0,0 l/m 0 min 0 min 0 W/m 0,0 km/h (0 Bft) 100,00 %
05.10.2019 06:46 8,3 C 6,1 C 0,0 C 99 % 1012,3 hPa 0,0 l/m 0 min 0 min 0 W/m 0,0 km/h (0 Bft) 100,00 %
05.10.2019 06:48 8,3 C 6,1 C 0,0 C 99 % 1012,4 hPa 0,0 l/m 0 min 0 min 0 W/m 0,0 km/h (0 Bft) 100,00 %
05.10.2019 06:50 8,2 C 6,1 C 0,0 C 99 % 1012,4 hPa 0,0 l/m 0 min 0 min 0 W/m 3,2 km/h (1 Bft) 97,83 %
05.10.2019 06:52 8,1 C 6,1 C 0,0 C 99 % 1012,4 hPa 0,0 l/m 0 min 0 min 0 W/m 0,0 km/h (0 Bft) 97,87 %
05.10.2019 06:54 8,1 C 6,1 C 0,0 C 99 % 1012,4 hPa 0,0 l/m 0 min 0 min 0 W/m 0,0 km/h (0 Bft) 100,00 %
05.10.2019 06:56 8,1 C 6,1 C 0,0 C 99 % 1012,5 hPa 0,0 l/m 0 min 0 min 0 W/m 0,0 km/h (0 Bft) 100,00 %
05.10.2019 06:58 8,0 C 6,1 C 0,0 C 99 % 1012,5 hPa 0,0 l/m 0 min 0 min 0 W/m 0,0 km/h (0 Bft) 100,00 %
05.10.2019 07:00 8,0 C 6,1 C 0,0 C 99 % 1012,5 hPa 0,0 l/m 0 min 0 min 0 W/m 0,0 km/h (0 Bft) 89,36 %
05.10.2019 07:02 7,9 C 6,1 C 0,0 C 99 % 1012,6 hPa 0,0 l/m 0 min 0 min 0 W/m 0,0 km/h (0 Bft) 57,14 %
05.10.2019 07:04 7,9 C 6,7 C 0,0 C 99 % 1012,6 hPa 0,0 l/m 0 min 0 min 0 W/m 3,2 km/h (1 Bft) 100,00 %
05.10.2019 07:06 7,9 C 6,7 C 0,0 C 99 % 1012,6 hPa 0,0 l/m 0 min 0 min 0 W/m 0,0 km/h (0 Bft) 100,00 %
05.10.2019 07:08 7,9 C 6,7 C 0,0 C 99 % 1012,6 hPa 0,0 l/m 0 min 0 min 0 W/m 0,0 km/h (0 Bft) 100,00 %
05.10.2019 07:10 7,8 C 6,7 C 0,0 C 99 % 1012,6 hPa 0,0 l/m 0 min 0 min 0 W/m 0,0 km/h (0 Bft) 100,00 %
05.10.2019 07:12 7,8 C 6,7 C 0,0 C 99 % 1012,7 hPa 0,0 l/m 0 min 0 min 0 W/m 3,2 km/h (1 Bft) 97,87 %
05.10.2019 07:14 7,8 C 6,7 C 0,0 C 99 % 1012,6 hPa 0,0 l/m 0 min 0 min 0 W/m 0,0 km/h (0 Bft) 100,00 %
05.10.2019 07:16 7,8 C 6,7 C 0,0 C 99 % 1012,7 hPa 0,0 l/m 0 min 0 min 0 W/m 0,0 km/h (0 Bft) 97,87 %
05.10.2019 07:18 7,8 C 6,7 C 0,0 C 99 % 1012,7 hPa 0,0 l/m 0 min 0 min 0 W/m 0,0 km/h (0 Bft) 100,00 %
05.10.2019 07:20 7,8 C 7,2 C 0,0 C 99 % 1012,7 hPa 0,0 l/m 0 min 0 min 0 W/m 0,0 km/h (0 Bft) 100,00 %
05.10.2019 07:22 7,7 C 7,2 C 0,0 C 99 % 1012,8 hPa 0,0 l/m 0 min 0 min 0 W/m 0,0 km/h (0 Bft) 100,00 %
05.10.2019 07:24 7,7 C 7,2 C 0,0 C 99 % 1012,8 hPa 0,0 l/m 0 min 0 min 0 W/m 0,0 km/h (0 Bft) 97,87 %
05.10.2019 07:26 7,7 C 7,2 C 0,0 C 99 % 1012,8 hPa 0,0 l/m 0 min 0 min 0 W/m 0,0 km/h (0 Bft) 100,00 %
05.10.2019 07:28 7,7 C 7,2 C 0,0 C 99 % 1012,8 hPa 0,0 l/m 0 min 0 min 0 W/m 0,0 km/h (0 Bft) 100,00 %
05.10.2019 07:30 7,7 C 7,2 C 0,0 C 99 % 1012,8 hPa 0,0 l/m 0 min 0 min 0 W/m 0,0 km/h (0 Bft) 100,00 %
05.10.2019 07:32 7,8 C 7,2 C 0,0 C 99 % 1012,9 hPa 0,0 l/m 0 min 0 min 0 W/m 3,2 km/h (1 Bft) 97,87 %
05.10.2019 07:34 7,8 C 6,7 C 0,0 C 99 % 1012,9 hPa 0,0 l/m 0 min 0 min 0 W/m 3,2 km/h (1 Bft) 97,87 %
05.10.2019 07:36 7,8 C 6,7 C 0,0 C 99 % 1012,9 hPa 0,0 l/m 0 min 0 min 0 W/m 0,0 km/h (0 Bft) 95,74 %
05.10.2019 07:38 7,8 C 6,7 C 0,0 C 99 % 1012,9 hPa 0,0 l/m 0 min 0 min 0 W/m 0,0 km/h (0 Bft) 97,83 %
05.10.2019 07:40 7,8 C 6,7 C 0,0 C 99 % 1013,0 hPa 0,0 l/m 0 min 0 min 0 W/m 0,0 km/h (0 Bft) 97,87 %
05.10.2019 07:42 7,8 C 6,7 C 0,0 C 99 % 1013,1 hPa 0,0 l/m 0 min 0 min 0 W/m 0,0 km/h (0 Bft) 100,00 %
05.10.2019 07:44 7,7 C 6,7 C 0,0 C 99 % 1013,1 hPa 0,0 l/m 0 min 0 min 0 W/m 0,0 km/h (0 Bft) 100,00 %
05.10.2019 07:46 7,7 C 6,7 C 0,0 C 99 % 1013,1 hPa 0,0 l/m 0 min 0 min 1 W/m 0,0 km/h (0 Bft) 97,87 %
05.10.2019 07:48 7,7 C 6,7 C 0,0 C 99 % 1013,2 hPa 0,0 l/m 0 min 0 min 5 W/m 0,0 km/h (0 Bft) 97,87 %
05.10.2019 07:50 7,7 C 6,7 C 0,0 C 99 % 1013,2 hPa 0,0 l/m 0 min 0 min 5 W/m 0,0 km/h (0 Bft) 97,83 %
05.10.2019 07:52 7,7 C 6,7 C 0,0 C 99 % 1013,2 hPa 0,0 l/m 0 min 0 min 7 W/m 0,0 km/h (0 Bft) 100,00 %
05.10.2019 07:54 7,7 C 6,7 C 0,0 C 99 % 1013,3 hPa 0,0 l/m 0 min 0 min 7 W/m 0,0 km/h (0 Bft) 97,87 %
05.10.2019 07:56 7,7 C 6,7 C 0,0 C 99 % 1013,4 hPa 0,0 l/m 0 min 0 min 9 W/m 3,2 km/h (1 Bft) 95,74 %
05.10.2019 07:58 7,7 C 7,2 C 0,0 C 99 % 1013,4 hPa 0,0 l/m 0 min 0 min 9 W/m 0,0 km/h (0 Bft) 97,87 %
05.10.2019 08:00 7,8 C 7,2 C 0,0 C 99 % 1013,4 hPa 0,0 l/m 0 min 0 min 8 W/m 0,0 km/h (0 Bft) 97,87 %
05.10.2019 08:02 7,8 C 7,2 C 0,0 C 99 % 1013,4 hPa 0,0 l/m 0 min 0 min 7 W/m 6,4 km/h (2 Bft) 93,48 %
05.10.2019 08:04 7,8 C 7,2 C 0,0 C 99 % 1013,5 hPa 0,0 l/m 0 min 0 min 7 W/m 0,0 km/h (0 Bft) 95,74 %
05.10.2019 08:06 7,8 C 7,2 C 0,0 C 99 % 1013,5 hPa 0,0 l/m 0 min 0 min 7 W/m 0,0 km/h (0 Bft) 97,87 %
05.10.2019 08:08 7,8 C 7,2 C 0,0 C 99 % 1013,6 hPa 0,0 l/m 0 min 0 min 7 W/m 0,0 km/h (0 Bft) 95,74 %
05.10.2019 08:10 7,8 C 7,2 C 0,0 C 99 % 1013,6 hPa 0,0 l/m 0 min 0 min 7 W/m 0,0 km/h (0 Bft) 95,74 %
05.10.2019 08:12 7,8 C 7,2 C 0,0 C 99 % 1013,6 hPa 0,0 l/m 0 min 0 min 8 W/m 0,0 km/h (0 Bft) 95,65 %
05.10.2019 08:14 7,8 C 7,2 C 0,0 C 99 % 1013,7 hPa 0,0 l/m 0 min 0 min 11 W/m 3,2 km/h (1 Bft) 93,62 %
05.10.2019 08:16 7,8 C 7,2 C 0,0 C 99 % 1013,7 hPa 0,0 l/m 0 min 0 min 11 W/m 0,0 km/h (0 Bft) 93,62 %
05.10.2019 08:18 7,8 C 7,2 C 0,0 C 99 % 1013,7 hPa 0,0 l/m 0 min 0 min 11 W/m 0,0 km/h (0 Bft) 92,59 %
05.10.2019 08:20 7,8 C 7,2 C 0,0 C 99 % 1013,8 hPa 0,0 l/m 0 min 0 min 11 W/m 0,0 km/h (0 Bft) 93,62 %
05.10.2019 08:22 7,8 C 7,2 C 0,0 C 99 % 1013,8 hPa 0,0 l/m 0 min 0 min 11 W/m 0,0 km/h (0 Bft) 93,62 %
05.10.2019 08:24 7,8 C 7,2 C 0,0 C 99 % 1013,8 hPa 0,0 l/m 0 min 0 min 11 W/m 0,0 km/h (0 Bft) 93,62 %
05.10.2019 08:26 7,9 C 7,2 C 0,0 C 99 % 1013,9 hPa 0,0 l/m 0 min 0 min 11 W/m 0,0 km/h (0 Bft) 93,62 %
05.10.2019 08:28 7,9 C 7,2 C 0,0 C 99 % 1013,9 hPa 0,0 l/m 0 min 0 min 9 W/m 3,2 km/h (1 Bft) 91,49 %
05.10.2019 08:30 7,9 C 7,2 C 0,0 C 99 % 1014,0 hPa 0,0 l/m 0 min 0 min 11 W/m 6,4 km/h (2 Bft) 93,48 %
05.10.2019 08:32 7,9 C 7,2 C 0,0 C 99 % 1014,0 hPa 0,0 l/m 0 min 0 min 12 W/m 0,0 km/h (0 Bft) 93,62 %
05.10.2019 08:34 7,9 C 7,2 C 0,0 C 99 % 1014,1 hPa 0,0 l/m 0 min 0 min 13 W/m 0,0 km/h (0 Bft) 93,62 %
05.10.2019 08:36 7,9 C 7,2 C 0,0 C 99 % 1014,2 hPa 0,0 l/m 0 min 0 min 16 W/m 3,2 km/h (1 Bft) 95,74 %
05.10.2019 08:38 7,9 C 7,2 C 0,0 C 99 % 1014,2 hPa 0,0 l/m 0 min 0 min 18 W/m 0,0 km/h (0 Bft) 95,74 %
05.10.2019 08:40 8,0 C 7,2 C 0,0 C 99 % 1014,3 hPa 0,0 l/m 0 min 0 min 15 W/m 3,2 km/h (1 Bft) 95,74 %
05.10.2019 08:42 8,0 C 7,2 C 0,0 C 99 % 1014,4 hPa 0,0 l/m 0 min 0 min 15 W/m 0,0 km/h (0 Bft) 95,65 %
05.10.2019 08:44 8,0 C 7,2 C 0,0 C 99 % 1014,4 hPa 0,0 l/m 0 min 0 min 17 W/m 0,0 km/h (0 Bft) 95,74 %
05.10.2019 08:46 8,0 C 7,2 C 0,0 C 99 % 1014,3 hPa 0,0 l/m 0 min 0 min 20 W/m 0,0 km/h (0 Bft) 93,62 %
05.10.2019 08:48 8,0 C 7,2 C 0,0 C 99 % 1014,4 hPa 0,0 l/m 0 min 0 min 23 W/m 3,2 km/h (1 Bft) 95,74 %
05.10.2019 08:50 8,0 C 7,2 C 0,0 C 99 % 1014,3 hPa 0,0 l/m 0 min 0 min 24 W/m 3,2 km/h (1 Bft) 93,62 %
05.10.2019 08:52 8,1 C 7,2 C 0,0 C 99 % 1014,3 hPa 0,0 l/m 0 min 0 min 26 W/m 0,0 km/h (0 Bft) 95,74 %
05.10.2019 08:54 8,1 C 7,2 C 0,0 C 99 % 1014,4 hPa 0,0 l/m 0 min 0 min 26 W/m 0,0 km/h (0 Bft) 95,65 %
05.10.2019 08:56 8,1 C 7,8 C 0,0 C 99 % 1014,4 hPa 0,0 l/m 0 min 0 min 28 W/m 0,0 km/h (0 Bft) 95,74 %
05.10.2019 08:58 8,1 C 7,8 C 0,0 C 99 % 1014,4 hPa 0,0 l/m 0 min 0 min 29 W/m 0,0 km/h (0 Bft) 97,87 %
05.10.2019 09:00 8,1 C 7,2 C 0,0 C 99 % 1014,4 hPa 0,0 l/m 0 min 0 min 26 W/m 0,0 km/h (0 Bft) 97,87 %
05.10.2019 09:02 8,1 C 7,8 C 0,0 C 99 % 1014,4 hPa 0,0 l/m 0 min 0 min 32 W/m 0,0 km/h (0 Bft) 97,87 %
05.10.2019 09:04 8,1 C 7,8 C 0,0 C 99 % 1014,4 hPa 0,0 l/m 0 min 0 min 29 W/m 3,2 km/h (1 Bft) 100,00 %
05.10.2019 09:06 8,1 C 7,8 C 0,0 C 99 % 1014,5 hPa 0,0 l/m 0 min 0 min 29 W/m 0,0 km/h (0 Bft) 100,00 %
05.10.2019 09:08 8,1 C 7,8 C 0,0 C 99 % 1014,5 hPa 0,0 l/m 0 min 0 min 24 W/m 0,0 km/h (0 Bft) 97,87 %
05.10.2019 09:10 8,1 C 7,8 C 0,0 C 99 % 1014,5 hPa 0,0 l/m 0 min 0 min 24 W/m 3,2 km/h (1 Bft) 100,00 %
05.10.2019 09:12 8,1 C 7,8 C 0,0 C 99 % 1014,5 hPa 0,0 l/m 0 min 0 min 22 W/m 0,0 km/h (0 Bft) 97,87 %
05.10.2019 09:14 8,1 C 7,8 C 0,0 C 99 % 1014,5 hPa 0,0 l/m 0 min 0 min 19 W/m 0,0 km/h (0 Bft) 97,87 %
05.10.2019 09:16 8,1 C 7,2 C 0,0 C 99 % 1014,5 hPa 0,0 l/m 0 min 0 min 18 W/m 0,0 km/h (0 Bft) 100,00 %
05.10.2019 09:18 8,1 C 7,2 C 0,0 C 99 % 1014,5 hPa 0,0 l/m 0 min 0 min 18 W/m 0,0 km/h (0 Bft) 97,87 %
05.10.2019 09:20 8,1 C 7,2 C 0,0 C 99 % 1014,5 hPa 0,0 l/m 0 min 0 min 18 W/m 3,2 km/h (1 Bft) 100,00 %
05.10.2019 09:22 8,1 C 7,2 C 0,0 C 99 % 1014,5 hPa 0,0 l/m 0 min 0 min 18 W/m 3,2 km/h (1 Bft) 100,00 %
05.10.2019 09:24 8,1 C 7,2 C 0,0 C 99 % 1014,6 hPa 0,0 l/m 0 min 0 min 21 W/m 0,0 km/h (0 Bft) 100,00 %
05.10.2019 09:26 8,1 C 7,2 C 0,0 C 99 % 1014,6 hPa 0,0 l/m 0 min 0 min 25 W/m 12,9 km/h (3 Bft) 100,00 %
05.10.2019 09:28 8,1 C 7,8 C 0,0 C 99 % 1014,7 hPa 0,0 l/m 0 min 0 min 26 W/m 6,4 km/h (2 Bft) 100,00 %
05.10.2019 09:30 8,1 C 7,8 C 0,0 C 99 % 1014,8 hPa 0,0 l/m 0 min 0 min 22 W/m 3,2 km/h (1 Bft) 100,00 %
05.10.2019 09:32 8,1 C 7,8 C 0,0 C 99 % 1014,8 hPa 0,0 l/m 0 min 0 min 21 W/m 3,2 km/h (1 Bft) 100,00 %
05.10.2019 09:34 8,1 C 7,8 C 0,0 C 99 % 1014,8 hPa 0,0 l/m 0 min 0 min 26 W/m 0,0 km/h (0 Bft) 97,87 %
05.10.2019 09:36 8,1 C 7,8 C 0,0 C 99 % 1014,9 hPa 0,0 l/m 0 min 0 min 32 W/m 0,0 km/h (0 Bft) 100,00 %
05.10.2019 09:38 8,1 C 7,8 C 0,0 C 99 % 1015,0 hPa 0,0 l/m 0 min 0 min 42 W/m 0,0 km/h (0 Bft) 100,00 %
05.10.2019 09:40 8,1 C 7,8 C 0,0 C 99 % 1015,1 hPa 0,0 l/m 0 min 0 min 49 W/m 0,0 km/h (0 Bft) 100,00 %
05.10.2019 09:42 8,1 C 7,8 C 0,0 C 99 % 1015,2 hPa 0,0 l/m 0 min 0 min 44 W/m 3,2 km/h (1 Bft) 100,00 %
05.10.2019 09:44 8,1 C 7,8 C 0,0 C 99 % 1015,2 hPa 0,0 l/m 0 min 0 min 49 W/m 0,0 km/h (0 Bft) 100,00 %
05.10.2019 09:46 8,1 C 7,8 C 0,0 C 99 % 1015,2 hPa 0,0 l/m 0 min 0 min 53 W/m 6,4 km/h (2 Bft) 100,00 %
05.10.2019 09:48 8,1 C 7,8 C 0,0 C 99 % 1015,3 hPa 0,0 l/m 0 min 0 min 49 W/m 6,4 km/h (2 Bft) 100,00 %
05.10.2019 09:50 8,2 C 7,8 C 0,0 C 99 % 1015,3 hPa 0,0 l/m 0 min 0 min 44 W/m 0,0 km/h (0 Bft) 100,00 %
05.10.2019 09:52 8,2 C 7,8 C 0,0 C 99 % 1015,4 hPa 0,0 l/m 0 min 0 min 46 W/m 3,2 km/h (1 Bft) 100,00 %
05.10.2019 09:54 8,2 C 7,8 C 0,0 C 99 % 1015,5 hPa 0,0 l/m 0 min 0 min 53 W/m 3,2 km/h (1 Bft) 100,00 %
05.10.2019 09:56 8,2 C 7,8 C 0,0 C 99 % 1015,4 hPa 0,0 l/m 0 min 0 min 66 W/m 3,2 km/h (1 Bft) 100,00 %
05.10.2019 09:58 8,2 C 8,3 C 0,0 C 99 % 1015,5 hPa 0,0 l/m 0 min 0 min 72 W/m 0,0 km/h (0 Bft) 100,00 %
05.10.2019 10:00 8,2 C 8,3 C 0,0 C 99 % 1015,5 hPa 0,0 l/m 0 min 0 min 80 W/m 0,0 km/h (0 Bft) 100,00 %
05.10.2019 10:02 8,2 C 8,3 C 0,0 C 99 % 1015,5 hPa 0,0 l/m 0 min 0 min 88 W/m 3,2 km/h (1 Bft) 100,00 %
05.10.2019 10:04 8,3 C 8,3 C 0,0 C 99 % 1015,5 hPa 0,0 l/m 0 min 0 min 95 W/m 3,2 km/h (1 Bft) 100,00 %
05.10.2019 10:06 8,3 C 8,3 C 0,0 C 99 % 1015,6 hPa 0,0 l/m 0 min 0 min 104 W/m 6,4 km/h (2 Bft) 97,87 %
05.10.2019 10:08 8,3 C 8,3 C 0,0 C 99 % 1015,6 hPa 0,0 l/m 0 min 0 min 109 W/m 12,9 km/h (3 Bft) 100,00 %
05.10.2019 10:10 8,3 C 8,3 C 0,0 C 99 % 1015,6 hPa 0,0 l/m 0 min 0 min 115 W/m 6,4 km/h (2 Bft) 97,87 %
05.10.2019 10:12 8,3 C 8,3 C 0,0 C 99 % 1015,7 hPa 0,0 l/m 0 min 0 min 123 W/m 6,4 km/h (2 Bft) 100,00 %
05.10.2019 10:14 8,3 C 8,9 C 0,0 C 99 % 1015,7 hPa 0,0 l/m 0 min 0 min 125 W/m 3,2 km/h (1 Bft) 95,65 %
05.10.2019 10:16 8,3 C 8,9 C 0,0 C 99 % 1015,7 hPa 0,0 l/m 0 min 0 min 123 W/m 3,2 km/h (1 Bft) 100,00 %
05.10.2019 10:18 8,4 C 8,9 C 0,0 C 99 % 1015,7 hPa 0,0 l/m 0 min 0 min 117 W/m 6,4 km/h (2 Bft) 100,00 %
05.10.2019 10:20 8,4 C 8,9 C 0,0 C 99 % 1015,8 hPa 0,0 l/m 0 min 0 min 113 W/m 0,0 km/h (0 Bft) 100,00 %
05.10.2019 10:22 8,4 C 8,9 C 0,0 C 99 % 1015,8 hPa 0,0 l/m 0 min 0 min 124 W/m 3,2 km/h (1 Bft) 100,00 %
05.10.2019 10:24 8,4 C 9,4 C 0,0 C 99 % 1015,8 hPa 0,0 l/m 0 min 0 min 167 W/m 6,4 km/h (2 Bft) 97,87 %
05.10.2019 10:26 8,5 C 9,4 C 0,0 C 99 % 1015,8 hPa 0,0 l/m 0 min 0 min 180 W/m 3,2 km/h (1 Bft) 97,83 %
05.10.2019 10:28 8,5 C 10,0 C 0,0 C 99 % 1015,9 hPa 0,0 l/m 0 min 0 min 169 W/m 3,2 km/h (1 Bft) 97,87 %
05.10.2019 10:30 8,6 C 10,0 C 0,0 C 99 % 1015,9 hPa 0,0 l/m 0 min 0 min 170 W/m 3,2 km/h (1 Bft) 97,87 %
05.10.2019 10:32 8,6 C 10,6 C 0,0 C 99 % 1016,0 hPa 0,0 l/m 0 min 0 min 181 W/m 6,4 km/h (2 Bft) 97,87 %
05.10.2019 10:34 8,6 C 11,1 C 0,0 C 99 % 1016,0 hPa 0,0 l/m 0 min 0 min 172 W/m 3,2 km/h (1 Bft) 95,74 %
05.10.2019 10:36 8,7 C 13,9 C 0,0 C 99 % 1016,0 hPa 0,0 l/m 2 min 0 min 342 W/m 3,2 km/h (1 Bft) 97,87 %
05.10.2019 10:38 8,8 C 14,4 C 0,0 C 99 % 1016,0 hPa 0,0 l/m 2 min 0 min 459 W/m 6,4 km/h (2 Bft) 97,83 %
05.10.2019 10:40 8,9 C 16,1 C 0,0 C 99 % 1016,0 hPa 0,0 l/m 2 min 0 min 347 W/m 3,2 km/h (1 Bft) 95,74 %
05.10.2019 10:42 9,0 C 16,1 C 0,0 C 99 % 1016,1 hPa 0,0 l/m 2 min 0 min 462 W/m 6,4 km/h (2 Bft) 95,74 %
05.10.2019 10:44 9,1 C 15,0 C 0,0 C 99 % 1016,1 hPa 0,0 l/m 2 min 0 min 416 W/m 6,4 km/h (2 Bft) 93,62 %
05.10.2019 10:46 9,1 C 14,4 C 0,0 C 99 % 1016,1 hPa 0,0 l/m 2 min 0 min 210 W/m 0,0 km/h (0 Bft) 93,62 %
05.10.2019 10:48 9,2 C 15,6 C 0,0 C 99 % 1016,2 hPa 0,0 l/m 2 min 0 min 276 W/m 3,2 km/h (1 Bft) 95,74 %
05.10.2019 10:50 9,3 C 15,6 C 0,0 C 99 % 1016,2 hPa 0,0 l/m 2 min 0 min 288 W/m 0,0 km/h (0 Bft) 97,83 %
05.10.2019 10:52 9,4 C 17,2 C 0,0 C 99 % 1016,1 hPa 0,0 l/m 2 min 0 min 401 W/m 3,2 km/h (1 Bft) 95,74 %
05.10.2019 10:54 9,4 C 17,2 C 0,0 C 99 % 1016,1 hPa 0,0 l/m 2 min 0 min 356 W/m 3,2 km/h (1 Bft) 95,74 %
05.10.2019 10:56 9,6 C 18,3 C 0,0 C 99 % 1016,1 hPa 0,0 l/m 2 min 0 min 495 W/m 3,2 km/h (1 Bft) 95,74 %
05.10.2019 10:58 9,7 C 18,9 C 0,0 C 99 % 1016,1 hPa 0,0 l/m 2 min 0 min 516 W/m 0,0 km/h (0 Bft) 95,74 %
05.10.2019 11:00 9,8 C 18,9 C 0,0 C 99 % 1016,2 hPa 0,0 l/m 2 min 0 min 502 W/m 3,2 km/h (1 Bft) 93,62 %
05.10.2019 11:02 9,9 C 18,3 C 0,0 C 98 % 1016,2 hPa 0,0 l/m 2 min 0 min 488 W/m 3,2 km/h (1 Bft) 93,48 %
05.10.2019 11:04 10,0 C 18,9 C 0,0 C 99 % 1016,2 hPa 0,0 l/m 2 min 0 min 488 W/m 3,2 km/h (1 Bft) 91,49 %
05.10.2019 11:06 10,1 C 18,3 C 0,0 C 98 % 1016,2 hPa 0,0 l/m 2 min 0 min 512 W/m 3,2 km/h (1 Bft) 91,49 %
05.10.2019 11:08 10,2 C 18,3 C 0,0 C 98 % 1016,3 hPa 0,0 l/m 2 min 0 min 512 W/m 3,2 km/h (1 Bft) 93,62 %
05.10.2019 11:10 10,3 C 18,9 C 0,0 C 98 % 1016,3 hPa 0,0 l/m 2 min 0 min 521 W/m 3,2 km/h (1 Bft) 93,62 %
05.10.2019 11:12 10,4 C 17,8 C 0,0 C 98 % 1016,4 hPa 0,0 l/m 2 min 0 min 446 W/m 9,7 km/h (2 Bft) 93,48 %
05.10.2019 11:14 10,6 C 17,8 C 0,0 C 97 % 1016,4 hPa 0,0 l/m 2 min 0 min 434 W/m 6,4 km/h (2 Bft) 93,62 %
05.10.2019 11:16 10,7 C 18,3 C 0,0 C 97 % 1016,4 hPa 0,0 l/m 2 min 0 min 567 W/m 6,4 km/h (2 Bft) 93,62 %
05.10.2019 11:18 10,7 C 16,1 C 0,0 C 97 % 1016,5 hPa 0,0 l/m 2 min 0 min 422 W/m 12,9 km/h (3 Bft) 93,62 %
05.10.2019 11:20 10,8 C 15,6 C 0,0 C 96 % 1016,5 hPa 0,0 l/m 0 min 0 min 196 W/m 3,2 km/h (1 Bft) 95,74 %
05.10.2019 11:22 10,9 C 14,4 C 0,0 C 95 % 1016,5 hPa 0,0 l/m 0 min 0 min 228 W/m 3,2 km/h (1 Bft) 93,62 %
05.10.2019 11:24 11,1 C 14,4 C 0,0 C 95 % 1016,4 hPa 0,0 l/m 2 min 0 min 269 W/m 3,2 km/h (1 Bft) 95,74 %
05.10.2019 11:26 11,1 C 14,4 C 0,0 C 94 % 1016,5 hPa 0,0 l/m 2 min 0 min 258 W/m 0,0 km/h (0 Bft) 95,74 %
05.10.2019 11:28 11,2 C 13,3 C 0,0 C 93 % 1016,5 hPa 0,0 l/m 0 min 0 min 222 W/m 6,4 km/h (2 Bft) 95,74 %
05.10.2019 11:30 11,3 C 12,8 C 0,0 C 92 % 1016,5 hPa 0,0 l/m 0 min 0 min 172 W/m 6,4 km/h (2 Bft) 95,74 %
05.10.2019 11:34 11,3 C 12,2 C 0,0 C 91 % 1016,5 hPa 0,0 l/m 0 min 0 min 165 W/m 6,4 km/h (2 Bft) 97,14 %
05.10.2019 11:36 11,4 C 12,2 C 0,0 C 90 % 1016,5 hPa 0,0 l/m 0 min 0 min 195 W/m 3,2 km/h (1 Bft) 95,74 %
05.10.2019 11:38 11,4 C 12,2 C 0,0 C 90 % 1016,6 hPa 0,0 l/m 0 min 0 min 181 W/m 12,9 km/h (3 Bft) 97,87 %
05.10.2019 11:40 11,4 C 12,2 C 0,0 C 89 % 1016,6 hPa 0,0 l/m 0 min 0 min 181 W/m 0,0 km/h (0 Bft) 95,74 %
05.10.2019 11:42 11,5 C 12,2 C 0,0 C 89 % 1016,7 hPa 0,0 l/m 0 min 0 min 171 W/m 3,2 km/h (1 Bft) 97,83 %
05.10.2019 11:46 11,5 C 11,7 C 0,0 C 88 % 1016,7 hPa 0,0 l/m 0 min 0 min 158 W/m 3,2 km/h (1 Bft) 97,67 %
05.10.2019 11:48 11,4 C 11,7 C 0,0 C 87 % 1016,8 hPa 0,0 l/m 0 min 0 min 154 W/m 3,2 km/h (1 Bft) 100,00 %
05.10.2019 11:50 11,4 C 11,7 C 0,0 C 87 % 1016,8 hPa 0,0 l/m 0 min 0 min 124 W/m 3,2 km/h (1 Bft) 95,83 %
05.10.2019 11:52 11,4 C 11,7 C 0,0 C 87 % 1016,8 hPa 0,0 l/m 0 min 0 min 119 W/m 3,2 km/h (1 Bft) 97,87 %
05.10.2019 11:56 11,4 C 11,7 C 0,0 C 86 % 1016,9 hPa 0,0 l/m 0 min 0 min 121 W/m 0,0 km/h (0 Bft) 100,00 %
05.10.2019 11:58 11,4 C 11,1 C 0,0 C 86 % 1016,9 hPa 0,0 l/m 0 min 0 min 128 W/m 3,2 km/h (1 Bft) 100,00 %
05.10.2019 12:00 11,4 C 11,1 C 0,0 C 86 % 1016,8 hPa 0,0 l/m 0 min 0 min 136 W/m 6,4 km/h (2 Bft) 100,00 %
05.10.2019 12:02 11,4 C 11,7 C 0,0 C 86 % 1016,9 hPa 0,0 l/m 0 min 0 min 131 W/m 3,2 km/h (1 Bft) 100,00 %
05.10.2019 12:04 11,4 C 11,7 C 0,0 C 86 % 1016,8 hPa 0,0 l/m 0 min 0 min 123 W/m 3,2 km/h (1 Bft) 100,00 %
05.10.2019 12:08 11,3 C 11,7 C 0,0 C 86 % 1016,8 hPa 0,0 l/m 0 min 0 min 158 W/m 6,4 km/h (2 Bft) 100,00 %
05.10.2019 12:10 11,3 C 12,2 C 0,0 C 86 % 1016,8 hPa 0,0 l/m 0 min 0 min 254 W/m 3,2 km/h (1 Bft) 100,00 %
05.10.2019 12:12 11,4 C 12,8 C 0,0 C 86 % 1016,8 hPa 0,0 l/m 0 min 0 min 259 W/m 6,4 km/h (2 Bft) 100,00 %
05.10.2019 12:14 11,4 C 13,3 C 0,0 C 86 % 1016,8 hPa 0,0 l/m 0 min 0 min 257 W/m 6,4 km/h (2 Bft) 100,00 %
05.10.2019 12:16 11,4 C 13,3 C 0,0 C 86 % 1016,8 hPa 0,0 l/m 2 min 0 min 281 W/m 6,4 km/h (2 Bft) 98,18 %
05.10.2019 12:18 11,4 C 13,3 C 0,0 C 87 % 1016,8 hPa 0,0 l/m 0 min 0 min 254 W/m 3,2 km/h (1 Bft) 100,00 %
05.10.2019 12:20 11,5 C 13,9 C 0,0 C 87 % 1016,8 hPa 0,0 l/m 0 min 0 min 247 W/m 6,4 km/h (2 Bft) 100,00 %
05.10.2019 12:22 11,6 C 13,9 C 0,0 C 87 % 1016,9 hPa 0,0 l/m 2 min 0 min 270 W/m 3,2 km/h (1 Bft) 97,83 %
05.10.2019 12:24 11,6 C 13,9 C 0,0 C 87 % 1016,8 hPa 0,0 l/m 2 min 0 min 280 W/m 6,4 km/h (2 Bft) 97,87 %
05.10.2019 12:26 11,6 C 13,3 C 0,0 C 86 % 1016,8 hPa 0,0 l/m 2 min 0 min 270 W/m 6,4 km/h (2 Bft) 100,00 %
05.10.2019 12:28 11,7 C 13,9 C 0,0 C 86 % 1016,8 hPa 0,0 l/m 0 min 0 min 267 W/m 3,2 km/h (1 Bft) 97,87 %
05.10.2019 12:30 11,7 C 13,9 C 0,0 C 87 % 1016,8 hPa 0,0 l/m 2 min 0 min 276 W/m 3,2 km/h (1 Bft) 100,00 %
05.10.2019 12:32 11,7 C 13,9 C 0,0 C 87 % 1016,8 hPa 0,0 l/m 0 min 0 min 255 W/m 3,2 km/h (1 Bft) 100,00 %
05.10.2019 12:34 11,8 C 13,9 C 0,0 C 86 % 1016,8 hPa 0,0 l/m 2 min 0 min 270 W/m 6,4 km/h (2 Bft) 100,00 %
05.10.2019 12:36 11,8 C 14,4 C 0,0 C 86 % 1016,8 hPa 0,0 l/m 2 min 0 min 298 W/m 3,2 km/h (1 Bft) 100,00 %
05.10.2019 12:38 11,8 C 14,4 C 0,0 C 86 % 1016,7 hPa 0,0 l/m 2 min 0 min 314 W/m 3,2 km/h (1 Bft) 100,00 %
05.10.2019 12:40 11,9 C 15,0 C 0,0 C 86 % 1016,8 hPa 0,0 l/m 2 min 0 min 335 W/m 3,2 km/h (1 Bft) 100,00 %
05.10.2019 12:42 11,9 C 15,0 C 0,0 C 86 % 1016,8 hPa 0,0 l/m 2 min 0 min 321 W/m 6,4 km/h (2 Bft) 100,00 %
05.10.2019 12:44 12,0 C 15,0 C 0,0 C 86 % 1016,8 hPa 0,0 l/m 2 min 0 min 312 W/m 3,2 km/h (1 Bft) 100,00 %
05.10.2019 12:46 12,1 C 15,0 C 0,0 C 86 % 1016,8 hPa 0,0 l/m 2 min 0 min 338 W/m 6,4 km/h (2 Bft) 100,00 %
05.10.2019 12:48 12,1 C 15,0 C 0,0 C 86 % 1016,8 hPa 0,0 l/m 2 min 0 min 344 W/m 6,4 km/h (2 Bft) 100,00 %
05.10.2019 12:50 12,1 C 15,0 C 0,0 C 85 % 1016,8 hPa 0,0 l/m 2 min 0 min 320 W/m 6,4 km/h (2 Bft) 97,83 %
05.10.2019 12:52 12,2 C 15,0 C 0,0 C 85 % 1016,8 hPa 0,0 l/m 2 min 0 min 334 W/m 3,2 km/h (1 Bft) 91,49 %
05.10.2019 12:54 12,2 C 14,4 C 0,0 C 84 % 1016,8 hPa 0,0 l/m 0 min 0 min 233 W/m 6,4 km/h (2 Bft) 97,87 %
05.10.2019 12:56 12,3 C 14,4 C 0,0 C 84 % 1016,8 hPa 0,0 l/m 0 min 0 min 220 W/m 3,2 km/h (1 Bft) 95,74 %
05.10.2019 12:58 12,3 C 15,0 C 0,0 C 85 % 1016,8 hPa 0,0 l/m 2 min 0 min 294 W/m 3,2 km/h (1 Bft) 97,87 %
05.10.2019 13:00 12,4 C 15,6 C 0,0 C 85 % 1016,8 hPa 0,0 l/m 2 min 0 min 361 W/m 3,2 km/h (1 Bft) 97,87 %
05.10.2019 13:02 12,4 C 15,6 C 0,0 C 85 % 1016,8 hPa 0,0 l/m 2 min 0 min 377 W/m 3,2 km/h (1 Bft) 95,65 %
05.10.2019 13:04 12,4 C 15,0 C 0,0 C 84 % 1016,9 hPa 0,0 l/m 2 min 0 min 332 W/m 9,7 km/h (2 Bft) 97,87 %
05.10.2019 13:06 12,5 C 14,4 C 0,0 C 84 % 1016,9 hPa 0,0 l/m 0 min 0 min 198 W/m 9,7 km/h (2 Bft) 97,87 %
05.10.2019 13:08 12,5 C 13,9 C 0,0 C 84 % 1016,9 hPa 0,0 l/m 0 min 0 min 172 W/m 6,4 km/h (2 Bft) 96,36 %
05.10.2019 13:10 12,5 C 13,3 C 0,0 C 84 % 1016,9 hPa 0,0 l/m 0 min 0 min 156 W/m 6,4 km/h (2 Bft) 97,87 %
05.10.2019 13:12 12,5 C 12,8 C 0,0 C 84 % 1017,0 hPa 0,0 l/m 0 min 0 min 146 W/m 6,4 km/h (2 Bft) 97,87 %
05.10.2019 13:14 12,5 C 12,8 C 0,0 C 83 % 1017,1 hPa 0,0 l/m 0 min 0 min 185 W/m 3,2 km/h (1 Bft) 97,87 %
05.10.2019 13:16 12,5 C 12,8 C 0,0 C 83 % 1017,0 hPa 0,0 l/m 0 min 0 min 223 W/m 6,4 km/h (2 Bft) 97,87 %
05.10.2019 13:18 12,5 C 13,3 C 0,0 C 83 % 1017,1 hPa 0,0 l/m 0 min 0 min 208 W/m 6,4 km/h (2 Bft) 97,83 %
05.10.2019 13:20 12,4 C 13,3 C 0,0 C 83 % 1017,1 hPa 0,0 l/m 0 min 0 min 227 W/m 6,4 km/h (2 Bft) 95,74 %
05.10.2019 13:22 12,4 C 13,3 C 0,0 C 83 % 1017,0 hPa 0,0 l/m 0 min 0 min 239 W/m 3,2 km/h (1 Bft) 91,49 %
05.10.2019 13:24 12,4 C 13,3 C 0,0 C 83 % 1017,1 hPa 0,0 l/m 0 min 0 min 224 W/m 6,4 km/h (2 Bft) 97,87 %
05.10.2019 13:26 12,4 C 12,8 C 0,0 C 83 % 1017,1 hPa 0,0 l/m 0 min 0 min 198 W/m 3,2 km/h (1 Bft) 97,87 %
05.10.2019 13:28 12,4 C 12,8 C 0,0 C 82 % 1017,1 hPa 0,0 l/m 0 min 0 min 192 W/m 6,4 km/h (2 Bft) 97,83 %
05.10.2019 13:30 12,4 C 12,8 C 0,0 C 82 % 1017,1 hPa 0,0 l/m 0 min 0 min 202 W/m 3,2 km/h (1 Bft) 95,74 %
05.10.2019 13:32 12,4 C 12,8 C 0,0 C 82 % 1017,1 hPa 0,0 l/m 0 min 0 min 228 W/m 9,7 km/h (2 Bft) 91,49 %
05.10.2019 13:34 12,4 C 12,8 C 0,0 C 82 % 1017,1 hPa 0,0 l/m 0 min 0 min 229 W/m 6,4 km/h (2 Bft) 97,87 %
05.10.2019 13:36 12,3 C 12,8 C 0,0 C 81 % 1017,1 hPa 0,0 l/m 0 min 0 min 211 W/m 6,4 km/h (2 Bft) 97,87 %
05.10.2019 13:38 12,4 C 12,8 C 0,0 C 82 % 1017,1 hPa 0,0 l/m 0 min 0 min 214 W/m 9,7 km/h (2 Bft) 100,00 %
05.10.2019 13:40 12,3 C 12,8 C 0,0 C 81 % 1017,1 hPa 0,0 l/m 0 min 0 min 242 W/m 9,7 km/h (2 Bft) 97,87 %
05.10.2019 13:42 12,3 C 13,3 C 0,0 C 81 % 1017,1 hPa 0,0 l/m 0 min 0 min 257 W/m 6,4 km/h (2 Bft) 93,62 %
05.10.2019 13:44 12,3 C 13,3 C 0,0 C 81 % 1017,1 hPa 0,0 l/m 0 min 0 min 261 W/m 9,7 km/h (2 Bft) 97,83 %
05.10.2019 13:46 12,3 C 13,9 C 0,0 C 81 % 1017,0 hPa 0,0 l/m 0 min 0 min 268 W/m 0,0 km/h (0 Bft) 97,87 %
05.10.2019 13:48 12,3 C 13,9 C 0,0 C 81 % 1017,1 hPa 0,0 l/m 2 min 0 min 320 W/m 3,2 km/h (1 Bft) 97,87 %
05.10.2019 13:50 12,4 C 14,4 C 0,0 C 81 % 1017,0 hPa 0,0 l/m 2 min 0 min 390 W/m 6,4 km/h (2 Bft) 97,87 %
05.10.2019 13:52 12,4 C 15,0 C 0,0 C 81 % 1017,0 hPa 0,0 l/m 2 min 0 min 353 W/m 6,4 km/h (2 Bft) 97,87 %
05.10.2019 13:54 12,4 C 14,4 C 0,0 C 80 % 1017,1 hPa 0,0 l/m 0 min 0 min 213 W/m 3,2 km/h (1 Bft) 95,65 %
05.10.2019 13:56 12,4 C 13,3 C 0,0 C 80 % 1017,1 hPa 0,0 l/m 0 min 0 min 132 W/m 6,4 km/h (2 Bft) 97,87 %
05.10.2019 13:58 12,4 C 12,8 C 0,0 C 79 % 1017,2 hPa 0,0 l/m 0 min 0 min 66 W/m 3,2 km/h (1 Bft) 97,87 %
05.10.2019 14:00 12,4 C 12,8 C 0,0 C 80 % 1017,2 hPa 0,0 l/m 0 min 0 min 63 W/m 6,4 km/h (2 Bft) 95,74 %
05.10.2019 14:02 12,4 C 12,2 C 0,0 C 80 % 1017,2 hPa 0,0 l/m 0 min 0 min 58 W/m 6,4 km/h (2 Bft) 97,87 %
05.10.2019 14:04 12,4 C 12,2 C 0,0 C 80 % 1017,2 hPa 0,0 l/m 0 min 0 min 54 W/m 6,4 km/h (2 Bft) 100,00 %
05.10.2019 14:06 12,5 C 12,2 C 0,0 C 80 % 1017,2 hPa 0,0 l/m 0 min 0 min 53 W/m 9,7 km/h (2 Bft) 100,00 %
05.10.2019 14:08 12,4 C 12,2 C 0,0 C 80 % 1017,3 hPa 0,0 l/m 0 min 0 min 56 W/m 3,2 km/h (1 Bft) 98,00 %
05.10.2019 14:10 12,4 C 12,2 C 0,0 C 81 % 1017,3 hPa 0,0 l/m 0 min 0 min 58 W/m 6,4 km/h (2 Bft) 97,87 %
05.10.2019 14:12 12,4 C 12,2 C 0,0 C 81 % 1017,3 hPa 0,0 l/m 0 min 0 min 63 W/m 6,4 km/h (2 Bft) 97,87 %
05.10.2019 14:14 12,4 C 12,2 C 0,0 C 81 % 1017,4 hPa 0,0 l/m 0 min 0 min 67 W/m 6,4 km/h (2 Bft) 100,00 %
05.10.2019 14:16 12,4 C 12,2 C 0,0 C 81 % 1017,3 hPa 0,0 l/m 0 min 0 min 73 W/m 12,9 km/h (3 Bft) 97,87 %
05.10.2019 14:18 12,4 C 12,8 C 0,0 C 81 % 1017,3 hPa 0,0 l/m 0 min 0 min 89 W/m 3,2 km/h (1 Bft) 97,83 %
05.10.2019 14:20 12,3 C 12,8 C 0,0 C 81 % 1017,3 hPa 0,0 l/m 0 min 0 min 110 W/m 6,4 km/h (2 Bft) 100,00 %
05.10.2019 14:22 12,4 C 13,3 C 0,0 C 81 % 1017,3 hPa 0,0 l/m 0 min 0 min 130 W/m 3,2 km/h (1 Bft) 100,00 %
05.10.2019 14:24 12,4 C 13,9 C 0,0 C 81 % 1017,3 hPa 0,0 l/m 0 min 0 min 229 W/m 3,2 km/h (1 Bft) 100,00 %
05.10.2019 14:26 12,4 C 14,4 C 0,0 C 82 % 1017,4 hPa 0,0 l/m 2 min 0 min 313 W/m 3,2 km/h (1 Bft) 97,87 %
05.10.2019 14:28 12,4 C 15,0 C 0,0 C 82 % 1017,4 hPa 0,0 l/m 2 min 0 min 325 W/m 3,2 km/h (1 Bft) 95,65 %
05.10.2019 14:30 12,4 C 15,0 C 0,0 C 82 % 1017,4 hPa 0,0 l/m 2 min 0 min 338 W/m 6,4 km/h (2 Bft) 100,00 %
05.10.2019 14:32 12,5 C 15,6 C 0,0 C 82 % 1017,4 hPa 0,0 l/m 2 min 0 min 335 W/m 3,2 km/h (1 Bft) 100,00 %
05.10.2019 14:34 12,6 C 15,6 C 0,0 C 82 % 1017,4 hPa 0,0 l/m 2 min 0 min 343 W/m 6,4 km/h (2 Bft) 97,87 %
05.10.2019 14:36 12,6 C 15,6 C 0,0 C 82 % 1017,4 hPa 0,0 l/m 2 min 0 min 345 W/m 6,4 km/h (2 Bft) 93,62 %
05.10.2019 14:38 12,6 C 16,1 C 0,0 C 80 % 1017,4 hPa 0,0 l/m 2 min 0 min 358 W/m 3,2 km/h (1 Bft) 97,87 %
05.10.2019 14:40 12,7 C 17,8 C 0,0 C 80 % 1017,4 hPa 0,0 l/m 2 min 0 min 435 W/m 0,0 km/h (0 Bft) 97,83 %
05.10.2019 14:42 12,8 C 18,9 C 0,0 C 80 % 1017,4 hPa 0,0 l/m 2 min 0 min 642 W/m 6,4 km/h (2 Bft) 95,74 %
05.10.2019 14:44 12,9 C 19,4 C 0,0 C 80 % 1017,5 hPa 0,0 l/m 2 min 0 min 671 W/m 6,4 km/h (2 Bft) 97,87 %
05.10.2019 14:46 13,0 C 18,3 C 0,0 C 79 % 1017,5 hPa 0,0 l/m 2 min 0 min 562 W/m 12,9 km/h (3 Bft) 95,74 %
05.10.2019 14:48 13,1 C 18,3 C 0,0 C 79 % 1017,4 hPa 0,0 l/m 2 min 0 min 490 W/m 12,9 km/h (3 Bft) 97,87 %
05.10.2019 14:50 13,3 C 18,9 C 0,0 C 79 % 1017,5 hPa 0,0 l/m 2 min 0 min 490 W/m 6,4 km/h (2 Bft) 97,87 %
05.10.2019 14:52 13,4 C 19,4 C 0,0 C 79 % 1017,5 hPa 0,0 l/m 2 min 0 min 654 W/m 9,7 km/h (2 Bft) 93,48 %
05.10.2019 14:54 13,6 C 18,9 C 0,0 C 79 % 1017,5 hPa 0,0 l/m 2 min 0 min 619 W/m 6,4 km/h (2 Bft) 97,87 %
05.10.2019 14:56 13,7 C 17,8 C 0,0 C 80 % 1017,5 hPa 0,0 l/m 2 min 0 min 338 W/m 6,4 km/h (2 Bft) 97,87 %
05.10.2019 14:58 13,7 C 16,7 C 0,0 C 79 % 1017,6 hPa 0,0 l/m 0 min 0 min 231 W/m 12,9 km/h (3 Bft) 97,87 %
05.10.2019 15:00 13,8 C 16,1 C 0,0 C 79 % 1017,6 hPa 0,0 l/m 0 min 0 min 210 W/m 3,2 km/h (1 Bft) 97,87 %
05.10.2019 15:02 13,8 C 15,6 C 0,0 C 78 % 1017,6 hPa 0,0 l/m 0 min 0 min 239 W/m 3,2 km/h (1 Bft) 97,87 %
05.10.2019 15:04 13,9 C 15,6 C 0,0 C 78 % 1017,7 hPa 0,0 l/m 0 min 0 min 238 W/m 6,4 km/h (2 Bft) 95,65 %
05.10.2019 15:06 13,9 C 15,6 C 0,0 C 78 % 1017,7 hPa 0,0 l/m 2 min 0 min 250 W/m 3,2 km/h (1 Bft) 93,62 %
05.10.2019 15:08 13,9 C 15,6 C 0,0 C 78 % 1017,7 hPa 0,0 l/m 0 min 0 min 211 W/m 3,2 km/h (1 Bft) 93,62 %
05.10.2019 15:10 13,9 C 15,0 C 0,0 C 78 % 1017,6 hPa 0,0 l/m 0 min 0 min 187 W/m 6,4 km/h (2 Bft) 95,74 %
05.10.2019 15:12 13,9 C 14,4 C 0,0 C 79 % 1017,7 hPa 0,0 l/m 0 min 0 min 178 W/m 3,2 km/h (1 Bft) 95,74 %
05.10.2019 15:14 13,9 C 14,4 C 0,0 C 78 % 1017,6 hPa 0,0 l/m 0 min 0 min 168 W/m 0,0 km/h (0 Bft) 95,74 %
05.10.2019 15:16 13,9 C 14,4 C 0,0 C 78 % 1017,6 hPa 0,0 l/m 0 min 0 min 190 W/m 12,9 km/h (3 Bft) 95,65 %
05.10.2019 15:18 13,9 C 14,4 C 0,0 C 77 % 1017,6 hPa 0,0 l/m 2 min 0 min 258 W/m 12,9 km/h (3 Bft) 95,74 %
05.10.2019 15:20 13,8 C 15,0 C 0,0 C 77 % 1017,7 hPa 0,0 l/m 2 min 0 min 304 W/m 6,4 km/h (2 Bft) 95,74 %
05.10.2019 15:22 13,8 C 15,0 C 0,0 C 76 % 1017,6 hPa 0,0 l/m 2 min 0 min 293 W/m 6,4 km/h (2 Bft) 91,49 %
05.10.2019 15:24 13,8 C 15,6 C 0,0 C 76 % 1017,6 hPa 0,0 l/m 2 min 0 min 305 W/m 3,2 km/h (1 Bft) 95,74 %
05.10.2019 15:26 13,8 C 16,1 C 0,0 C 77 % 1017,6 hPa 0,0 l/m 2 min 0 min 314 W/m 6,4 km/h (2 Bft) 93,62 %
05.10.2019 15:28 13,8 C 15,6 C 0,0 C 77 % 1017,6 hPa 0,0 l/m 2 min 0 min 279 W/m 6,4 km/h (2 Bft) 95,65 %
05.10.2019 15:30 13,8 C 15,6 C 0,0 C 76 % 1017,6 hPa 0,0 l/m 2 min 0 min 254 W/m 12,9 km/h (3 Bft) 95,74 %
05.10.2019 15:32 13,8 C 15,0 C 0,0 C 75 % 1017,6 hPa 0,0 l/m 2 min 0 min 266 W/m 12,9 km/h (3 Bft) 93,62 %
05.10.2019 15:34 13,8 C 15,6 C 0,0 C 75 % 1017,6 hPa 0,0 l/m 2 min 0 min 231 W/m 6,4 km/h (2 Bft) 95,74 %
05.10.2019 15:36 13,7 C 15,0 C 0,0 C 75 % 1017,6 hPa 0,0 l/m 2 min 0 min 229 W/m 12,9 km/h (3 Bft) 93,62 %
05.10.2019 15:38 13,7 C 15,0 C 0,0 C 74 % 1017,6 hPa 0,0 l/m 0 min 0 min 210 W/m 6,4 km/h (2 Bft) 93,62 %
05.10.2019 15:40 13,7 C 17,2 C 0,0 C 74 % 1017,7 hPa 0,0 l/m 2 min 0 min 225 W/m 6,4 km/h (2 Bft) 95,65 %
05.10.2019 15:42 13,8 C 18,9 C 0,0 C 74 % 1017,7 hPa 0,0 l/m 2 min 0 min 552 W/m 6,4 km/h (2 Bft) 97,87 %
05.10.2019 15:44 13,8 C 19,4 C 0,0 C 74 % 1017,7 hPa 0,0 l/m 2 min 0 min 453 W/m 12,9 km/h (3 Bft) 100,00 %
05.10.2019 15:46 13,8 C 19,4 C 0,0 C 73 % 1017,7 hPa 0,0 l/m 2 min 0 min 449 W/m 12,9 km/h (3 Bft) 95,74 %
05.10.2019 15:48 13,9 C 17,8 C 0,0 C 73 % 1017,7 hPa 0,0 l/m 2 min 0 min 544 W/m 16,1 km/h (3 Bft) 97,87 %
05.10.2019 15:50 13,9 C 16,1 C 0,0 C 72 % 1017,7 hPa 0,0 l/m 2 min 0 min 248 W/m 12,9 km/h (3 Bft) 95,65 %
05.10.2019 15:52 13,9 C 15,6 C 0,0 C 72 % 1017,8 hPa 0,0 l/m 2 min 0 min 244 W/m 6,4 km/h (2 Bft) 100,00 %
05.10.2019 15:54 14,0 C 14,4 C 0,0 C 73 % 1017,7 hPa 0,0 l/m 0 min 0 min 166 W/m 12,9 km/h (3 Bft) 97,87 %
05.10.2019 15:56 14,0 C 14,4 C 0,0 C 73 % 1017,7 hPa 0,0 l/m 0 min 0 min 153 W/m 12,9 km/h (3 Bft) 95,74 %
05.10.2019 15:58 14,0 C 13,9 C 0,0 C 73 % 1017,7 hPa 0,0 l/m 0 min 0 min 151 W/m 6,4 km/h (2 Bft) 97,87 %
05.10.2019 16:00 14,0 C 13,9 C 0,0 C 74 % 1017,7 hPa 0,0 l/m 0 min 0 min 146 W/m 6,4 km/h (2 Bft) 97,87 %
05.10.2019 16:02 13,9 C 13,3 C 0,0 C 75 % 1017,7 hPa 0,0 l/m 0 min 0 min 142 W/m 6,4 km/h (2 Bft) 95,65 %
05.10.2019 16:04 13,9 C 13,3 C 0,0 C 75 % 1017,7 hPa 0,0 l/m 0 min 0 min 135 W/m 6,4 km/h (2 Bft) 97,87 %
05.10.2019 16:06 13,9 C 13,3 C 0,0 C 76 % 1017,8 hPa 0,0 l/m 0 min 0 min 119 W/m 6,4 km/h (2 Bft) 97,87 %
05.10.2019 16:08 13,9 C 13,3 C 0,0 C 76 % 1017,8 hPa 0,0 l/m 0 min 0 min 113 W/m 3,2 km/h (1 Bft) 97,87 %
05.10.2019 16:10 13,8 C 13,9 C 0,0 C 76 % 1017,8 hPa 0,0 l/m 0 min 0 min 147 W/m 3,2 km/h (1 Bft) 97,87 %
05.10.2019 16:12 13,8 C 16,1 C 0,0 C 77 % 1017,8 hPa 0,0 l/m 2 min 0 min 258 W/m 6,4 km/h (2 Bft) 97,87 %
05.10.2019 16:14 13,8 C 17,2 C 0,0 C 78 % 1017,8 hPa 0,0 l/m 2 min 0 min 455 W/m 0,0 km/h (0 Bft) 97,83 %
05.10.2019 16:16 13,9 C 17,8 C 0,0 C 79 % 1017,8 hPa 0,0 l/m 2 min 0 min 331 W/m 6,4 km/h (2 Bft) 95,74 %
05.10.2019 16:18 13,9 C 17,8 C 0,0 C 79 % 1017,7 hPa 0,0 l/m 2 min 0 min 362 W/m 3,2 km/h (1 Bft) 93,62 %
05.10.2019 16:20 14,0 C 17,8 C 0,0 C 78 % 1017,8 hPa 0,0 l/m 2 min 0 min 371 W/m 6,4 km/h (2 Bft) 93,62 %
05.10.2019 16:22 14,0 C 18,3 C 0,0 C 77 % 1017,7 hPa 0,0 l/m 2 min 0 min 410 W/m 6,4 km/h (2 Bft) 95,74 %
05.10.2019 16:24 14,1 C 18,3 C 0,0 C 75 % 1017,7 hPa 0,0 l/m 2 min 0 min 480 W/m 9,7 km/h (2 Bft) 95,74 %
05.10.2019 16:26 14,1 C 18,9 C 0,0 C 74 % 1017,7 hPa 0,0 l/m 2 min 0 min 440 W/m 9,7 km/h (2 Bft) 100,00 %
05.10.2019 16:28 14,2 C 20,0 C 0,0 C 75 % 1017,7 hPa 0,0 l/m 2 min 0 min 373 W/m 3,2 km/h (1 Bft) 97,87 %
05.10.2019 16:30 14,3 C 20,6 C 0,0 C 74 % 1017,8 hPa 0,0 l/m 2 min 0 min 369 W/m 6,4 km/h (2 Bft) 100,00 %
05.10.2019 16:32 14,3 C 19,4 C 0,0 C 72 % 1017,8 hPa 0,0 l/m 2 min 0 min 365 W/m 12,9 km/h (3 Bft) 100,00 %
05.10.2019 16:34 14,3 C 18,9 C 0,0 C 71 % 1017,8 hPa 0,0 l/m 2 min 0 min 346 W/m 6,4 km/h (2 Bft) 100,00 %
05.10.2019 16:36 14,3 C 16,7 C 0,0 C 71 % 1017,9 hPa 0,0 l/m 2 min 0 min 291 W/m 16,1 km/h (3 Bft) 100,00 %
05.10.2019 16:38 14,4 C 16,1 C 0,0 C 71 % 1017,9 hPa 0,0 l/m 0 min 0 min 161 W/m 6,4 km/h (2 Bft) 97,83 %
05.10.2019 16:40 14,5 C 15,6 C 0,0 C 72 % 1018,0 hPa 0,0 l/m 0 min 0 min 136 W/m 6,4 km/h (2 Bft) 100,00 %
05.10.2019 16:42 14,6 C 14,4 C 0,0 C 72 % 1018,0 hPa 0,0 l/m 0 min 0 min 124 W/m 12,9 km/h (3 Bft) 100,00 %
05.10.2019 16:44 14,6 C 13,9 C 0,0 C 72 % 1018,1 hPa 0,0 l/m 0 min 0 min 121 W/m 9,7 km/h (2 Bft) 100,00 %
05.10.2019 16:46 14,5 C 13,9 C 0,0 C 72 % 1018,1 hPa 0,0 l/m 0 min 0 min 128 W/m 9,7 km/h (2 Bft) 100,00 %
05.10.2019 16:48 14,5 C 13,9 C 0,0 C 73 % 1018,0 hPa 0,0 l/m 0 min 0 min 135 W/m 6,4 km/h (2 Bft) 100,00 %
05.10.2019 16:50 14,4 C 13,9 C 0,0 C 73 % 1018,0 hPa 0,0 l/m 0 min 0 min 140 W/m 6,4 km/h (2 Bft) 100,00 %
05.10.2019 16:52 14,4 C 13,9 C 0,0 C 72 % 1018,0 hPa 0,0 l/m 0 min 0 min 150 W/m 9,7 km/h (2 Bft) 95,74 %
05.10.2019 16:54 14,3 C 13,9 C 0,0 C 72 % 1017,9 hPa 0,0 l/m 2 min 0 min 156 W/m 9,7 km/h (2 Bft) 100,00 %
05.10.2019 16:56 14,3 C 13,9 C 0,0 C 73 % 1017,9 hPa 0,0 l/m 2 min 0 min 172 W/m 6,4 km/h (2 Bft) 100,00 %
05.10.2019 16:58 14,3 C 13,9 C 0,0 C 73 % 1017,9 hPa 0,0 l/m 2 min 0 min 172 W/m 3,2 km/h (1 Bft) 100,00 %
05.10.2019 17:00 14,3 C 13,9 C 0,0 C 73 % 1017,9 hPa 0,0 l/m 2 min 0 min 174 W/m 3,2 km/h (1 Bft) 100,00 %
05.10.2019 17:02 14,3 C 13,9 C 0,0 C 74 % 1017,9 hPa 0,0 l/m 2 min 0 min 152 W/m 6,4 km/h (2 Bft) 100,00 %
05.10.2019 17:04 14,3 C 13,9 C 0,0 C 74 % 1017,9 hPa 0,0 l/m 0 min 0 min 111 W/m 6,4 km/h (2 Bft) 97,87 %
05.10.2019 17:06 14,3 C 13,9 C 0,0 C 74 % 1017,9 hPa 0,0 l/m 0 min 0 min 125 W/m 6,4 km/h (2 Bft) 100,00 %
05.10.2019 17:08 14,2 C 13,3 C 0,0 C 74 % 1017,9 hPa 0,0 l/m 0 min 0 min 128 W/m 6,4 km/h (2 Bft) 100,00 %
05.10.2019 17:10 14,1 C 13,3 C 0,0 C 73 % 1018,0 hPa 0,0 l/m 0 min 0 min 136 W/m 6,4 km/h (2 Bft) 97,87 %
05.10.2019 17:12 14,1 C 13,3 C 0,0 C 74 % 1018,0 hPa 0,0 l/m 0 min 0 min 126 W/m 0,0 km/h (0 Bft) 100,00 %
05.10.2019 17:14 14,1 C 13,3 C 0,0 C 73 % 1018,0 hPa 0,0 l/m 0 min 0 min 104 W/m 9,7 km/h (2 Bft) 100,00 %
05.10.2019 17:16 13,9 C 13,3 C 0,0 C 73 % 1017,9 hPa 0,0 l/m 0 min 0 min 97 W/m 6,4 km/h (2 Bft) 100,00 %
05.10.2019 17:18 13,9 C 12,8 C 0,0 C 73 % 1017,8 hPa 0,0 l/m 0 min 0 min 96 W/m 6,4 km/h (2 Bft) 100,00 %
05.10.2019 17:20 13,8 C 12,8 C 0,0 C 73 % 1017,9 hPa 0,0 l/m 0 min 0 min 104 W/m 6,4 km/h (2 Bft) 100,00 %
05.10.2019 17:22 13,8 C 12,8 C 0,0 C 74 % 1017,9 hPa 0,0 l/m 0 min 0 min 119 W/m 6,4 km/h (2 Bft) 100,00 %
05.10.2019 17:24 13,8 C 12,8 C 0,0 C 74 % 1017,9 hPa 0,0 l/m 0 min 0 min 120 W/m 6,4 km/h (2 Bft) 100,00 %
05.10.2019 17:26 13,7 C 12,8 C 0,0 C 74 % 1017,8 hPa 0,0 l/m 2 min 0 min 120 W/m 6,4 km/h (2 Bft) 100,00 %
05.10.2019 17:28 13,7 C 12,8 C 0,0 C 74 % 1017,8 hPa 0,0 l/m 2 min 0 min 120 W/m 6,4 km/h (2 Bft) 95,74 %
05.10.2019 17:30 13,6 C 12,8 C 0,0 C 74 % 1017,8 hPa 0,0 l/m 0 min 0 min 113 W/m 6,4 km/h (2 Bft) 97,87 %
05.10.2019 17:32 13,6 C 12,8 C 0,0 C 74 % 1017,8 hPa 0,0 l/m 0 min 0 min 106 W/m 6,4 km/h (2 Bft) 97,87 %
05.10.2019 17:34 13,6 C 12,8 C 0,0 C 74 % 1017,9 hPa 0,0 l/m 0 min 0 min 104 W/m 6,4 km/h (2 Bft) 97,87 %
05.10.2019 17:36 13,5 C 12,8 C 0,0 C 75 % 1017,8 hPa 0,0 l/m 0 min 0 min 101 W/m 6,4 km/h (2 Bft) 97,83 %
05.10.2019 17:38 13,5 C 12,8 C 0,0 C 75 % 1017,9 hPa 0,0 l/m 0 min 0 min 96 W/m 6,4 km/h (2 Bft) 95,74 %
05.10.2019 17:40 13,4 C 12,8 C 0,0 C 75 % 1017,9 hPa 0,0 l/m 0 min 0 min 94 W/m 6,4 km/h (2 Bft) 97,87 %
05.10.2019 17:42 13,4 C 12,8 C 0,0 C 76 % 1017,8 hPa 0,0 l/m 0 min 0 min 90 W/m 3,2 km/h (1 Bft) 97,87 %
05.10.2019 17:44 13,4 C 12,8 C 0,0 C 76 % 1017,9 hPa 0,0 l/m 0 min 0 min 84 W/m 6,4 km/h (2 Bft) 95,74 %
05.10.2019 17:46 13,3 C 12,2 C 0,0 C 75 % 1018,0 hPa 0,0 l/m 0 min 0 min 73 W/m 6,4 km/h (2 Bft) 97,83 %
05.10.2019 17:48 13,3 C 12,2 C 0,0 C 75 % 1018,0 hPa 0,0 l/m 0 min 0 min 70 W/m 6,4 km/h (2 Bft) 97,87 %
05.10.2019 17:50 13,3 C 12,2 C 0,0 C 75 % 1018,1 hPa 0,0 l/m 0 min 0 min 69 W/m 6,4 km/h (2 Bft) 95,74 %
05.10.2019 17:52 13,2 C 12,2 C 0,0 C 75 % 1018,1 hPa 0,0 l/m 0 min 0 min 60 W/m 9,7 km/h (2 Bft) 95,74 %
05.10.2019 17:54 13,2 C 12,2 C 0,0 C 75 % 1018,1 hPa 0,0 l/m 0 min 0 min 48 W/m 6,4 km/h (2 Bft) 97,87 %
05.10.2019 17:56 13,1 C 11,7 C 0,0 C 75 % 1018,1 hPa 0,0 l/m 0 min 0 min 46 W/m 12,9 km/h (3 Bft) 95,74 %
05.10.2019 17:58 13,1 C 11,7 C 0,0 C 75 % 1018,0 hPa 0,0 l/m 0 min 0 min 49 W/m 6,4 km/h (2 Bft) 95,65 %
05.10.2019 18:00 13,0 C 11,7 C 0,0 C 75 % 1018,0 hPa 0,0 l/m 0 min 0 min 47 W/m 6,4 km/h (2 Bft) 95,74 %
05.10.2019 18:02 12,9 C 11,7 C 0,0 C 75 % 1018,1 hPa 0,0 l/m 0 min 0 min 45 W/m 0,0 km/h (0 Bft) 91,67 %
05.10.2019 18:04 12,9 C 11,7 C 0,0 C 76 % 1018,1 hPa 0,0 l/m 0 min 0 min 44 W/m 3,2 km/h (1 Bft) 95,65 %
05.10.2019 18:08 12,9 C 11,1 C 0,0 C 76 % 1018,2 hPa 0,0 l/m 0 min 0 min 46 W/m 6,4 km/h (2 Bft) 95,74 %
05.10.2019 18:10 12,8 C 11,1 C 0,0 C 76 % 1018,2 hPa 0,0 l/m 0 min 0 min 50 W/m 0,0 km/h (0 Bft) 95,74 %
05.10.2019 18:12 12,8 C 11,1 C 0,0 C 77 % 1018,2 hPa 0,0 l/m 0 min 0 min 49 W/m 6,4 km/h (2 Bft) 95,74 %
05.10.2019 18:14 12,7 C 11,1 C 0,0 C 77 % 1018,2 hPa 0,0 l/m 0 min 0 min 47 W/m 3,2 km/h (1 Bft) 97,87 %
05.10.2019 18:16 12,7 C 11,1 C 0,0 C 77 % 1018,2 hPa 0,0 l/m 0 min 0 min 49 W/m 0,0 km/h (0 Bft) 97,83 %
05.10.2019 18:18 12,7 C 11,1 C 0,0 C 77 % 1018,2 hPa 0,0 l/m 0 min 0 min 49 W/m 0,0 km/h (0 Bft) 97,87 %
05.10.2019 18:20 12,6 C 11,1 C 0,0 C 77 % 1018,2 hPa 0,0 l/m 0 min 0 min 46 W/m 0,0 km/h (0 Bft) 95,74 %
05.10.2019 18:22 12,6 C 11,1 C 0,0 C 78 % 1018,2 hPa 0,0 l/m 0 min 0 min 40 W/m 0,0 km/h (0 Bft) 97,87 %
05.10.2019 18:24 12,6 C 11,1 C 0,0 C 78 % 1018,3 hPa 0,0 l/m 0 min 0 min 36 W/m 0,0 km/h (0 Bft) 95,74 %
05.10.2019 18:26 12,6 C 11,1 C 0,0 C 78 % 1018,3 hPa 0,0 l/m 0 min 0 min 33 W/m 0,0 km/h (0 Bft) 95,74 %
05.10.2019 18:28 12,5 C 11,1 C 0,0 C 79 % 1018,3 hPa 0,0 l/m 0 min 0 min 31 W/m 0,0 km/h (0 Bft) 93,48 %
05.10.2019 18:30 12,4 C 11,1 C 0,0 C 79 % 1018,4 hPa 0,0 l/m 0 min 0 min 28 W/m 3,2 km/h (1 Bft) 95,74 %
05.10.2019 18:32 12,4 C 11,1 C 0,0 C 79 % 1018,4 hPa 0,0 l/m 0 min 0 min 28 W/m 0,0 km/h (0 Bft) 95,74 %
05.10.2019 18:34 12,4 C 10,6 C 0,0 C 79 % 1018,4 hPa 0,0 l/m 0 min 0 min 29 W/m 0,0 km/h (0 Bft) 95,74 %
05.10.2019 18:36 12,4 C 10,6 C 0,0 C 79 % 1018,4 hPa 0,0 l/m 2 min 0 min 30 W/m 0,0 km/h (0 Bft) 95,74 %
05.10.2019 18:38 12,3 C 10,6 C 0,0 C 79 % 1018,4 hPa 0,0 l/m 2 min 0 min 29 W/m 0,0 km/h (0 Bft) 95,74 %
05.10.2019 18:40 12,3 C 10,6 C 0,0 C 79 % 1018,4 hPa 0,0 l/m 2 min 0 min 28 W/m 0,0 km/h (0 Bft) 93,48 %
05.10.2019 18:42 12,3 C 10,6 C 0,0 C 79 % 1018,3 hPa 0,0 l/m 2 min 0 min 25 W/m 0,0 km/h (0 Bft) 95,74 %
05.10.2019 18:44 12,3 C 10,6 C 0,0 C 80 % 1018,2 hPa 0,0 l/m 2 min 0 min 21 W/m 3,2 km/h (1 Bft) 95,74 %
05.10.2019 18:46 12,2 C 10,6 C 0,0 C 80 % 1018,3 hPa 0,0 l/m 0 min 0 min 17 W/m 6,4 km/h (2 Bft) 97,87 %
05.10.2019 18:48 12,2 C 10,0 C 0,0 C 80 % 1018,4 hPa 0,0 l/m 0 min 0 min 13 W/m 0,0 km/h (0 Bft) 97,87 %
05.10.2019 18:50 12,1 C 10,0 C 0,0 C 80 % 1018,4 hPa 0,0 l/m 0 min 0 min 10 W/m 0,0 km/h (0 Bft) 100,00 %
05.10.2019 18:52 12,1 C 10,0 C 0,0 C 80 % 1018,5 hPa 0,0 l/m 0 min 0 min 9 W/m 0,0 km/h (0 Bft) 97,83 %
05.10.2019 18:54 12,1 C 10,0 C 0,0 C 80 % 1018,4 hPa 0,0 l/m 0 min 0 min 9 W/m 0,0 km/h (0 Bft) 97,87 %
05.10.2019 18:56 12,0 C 9,4 C 0,0 C 80 % 1018,4 hPa 0,0 l/m 0 min 0 min 9 W/m 0,0 km/h (0 Bft) 95,74 %
05.10.2019 18:58 11,9 C 9,4 C 0,0 C 80 % 1018,5 hPa 0,0 l/m 0 min 0 min 9 W/m 0,0 km/h (0 Bft) 95,74 %
05.10.2019 19:00 11,9 C 9,4 C 0,0 C 80 % 1018,4 hPa 0,0 l/m 0 min 0 min 8 W/m 0,0 km/h (0 Bft) 97,87 %
05.10.2019 19:02 11,9 C 9,4 C 0,0 C 80 % 1018,5 hPa 0,0 l/m 0 min 0 min 6 W/m 0,0 km/h (0 Bft) 97,83 %
05.10.2019 19:04 11,8 C 9,4 C 0,0 C 80 % 1018,6 hPa 0,0 l/m 0 min 0 min 5 W/m 0,0 km/h (0 Bft) 95,74 %
05.10.2019 19:06 11,8 C 9,4 C 0,0 C 81 % 1018,7 hPa 0,0 l/m 0 min 0 min 2 W/m 0,0 km/h (0 Bft) 97,87 %
05.10.2019 19:10 11,7 C 8,9 C 0,0 C 80 % 1018,8 hPa 0,0 l/m 0 min 0 min 0 W/m 0,0 km/h (0 Bft) 96,61 %
05.10.2019 19:12 11,6 C 8,9 C 0,0 C 80 % 1018,8 hPa 0,0 l/m 0 min 0 min 0 W/m 0,0 km/h (0 Bft) 97,87 %
05.10.2019 19:14 11,6 C 8,9 C 0,0 C 81 % 1018,8 hPa 0,0 l/m 0 min 0 min 0 W/m 0,0 km/h (0 Bft) 97,87 %
05.10.2019 19:16 11,5 C 8,9 C 0,0 C 81 % 1018,8 hPa 0,0 l/m 0 min 0 min 0 W/m 0,0 km/h (0 Bft) 97,83 %
05.10.2019 19:18 11,4 C 8,9 C 0,0 C 81 % 1018,8 hPa 0,0 l/m 0 min 0 min 0 W/m 0,0 km/h (0 Bft) 95,74 %
05.10.2019 19:20 11,4 C 8,9 C 0,0 C 81 % 1018,8 hPa 0,0 l/m 0 min 0 min 0 W/m 0,0 km/h (0 Bft) 97,87 %
05.10.2019 19:22 11,3 C 8,3 C 0,0 C 81 % 1018,8 hPa 0,0 l/m 0 min 0 min 0 W/m 0,0 km/h (0 Bft) 95,74 %
05.10.2019 19:24 11,3 C 8,3 C 0,0 C 81 % 1018,7 hPa 0,0 l/m 0 min 0 min 0 W/m 0,0 km/h (0 Bft) 97,87 %
05.10.2019 19:26 11,2 C 8,3 C 0,0 C 81 % 1018,7 hPa 0,0 l/m 0 min 0 min 0 W/m 0,0 km/h (0 Bft) 97,83 %
05.10.2019 19:28 11,2 C 8,3 C 0,0 C 81 % 1018,7 hPa 0,0 l/m 0 min 0 min 0 W/m 0,0 km/h (0 Bft) 97,87 %
05.10.2019 19:30 11,1 C 8,3 C 0,0 C 81 % 1018,6 hPa 0,0 l/m 0 min 0 min 0 W/m 0,0 km/h (0 Bft) 100,00 %
05.10.2019 19:32 11,1 C 8,3 C 0,0 C 81 % 1018,5 hPa 0,0 l/m 0 min 0 min 0 W/m 0,0 km/h (0 Bft) 100,00 %
05.10.2019 19:34 10,9 C 8,3 C 0,0 C 81 % 1018,6 hPa 0,0 l/m 0 min 0 min 0 W/m 0,0 km/h (0 Bft) 97,87 %
05.10.2019 19:36 10,9 C 8,3 C 0,0 C 81 % 1018,6 hPa 0,0 l/m 0 min 0 min 0 W/m 0,0 km/h (0 Bft) 100,00 %
05.10.2019 19:38 10,9 C 8,3 C 0,0 C 82 % 1018,7 hPa 0,0 l/m 0 min 0 min 0 W/m 0,0 km/h (0 Bft) 100,00 %
05.10.2019 19:40 10,8 C 8,3 C 0,0 C 82 % 1018,7 hPa 0,0 l/m 0 min 0 min 0 W/m 0,0 km/h (0 Bft) 100,00 %
05.10.2019 19:42 10,8 C 8,3 C 0,0 C 82 % 1018,7 hPa 0,0 l/m 0 min 0 min 0 W/m 0,0 km/h (0 Bft) 100,00 %
05.10.2019 19:44 10,7 C 8,3 C 0,0 C 82 % 1018,7 hPa 0,0 l/m 0 min 0 min 0 W/m 0,0 km/h (0 Bft) 97,87 %
05.10.2019 19:46 10,7 C 8,3 C 0,0 C 82 % 1018,7 hPa 0,0 l/m 0 min 0 min 0 W/m 0,0 km/h (0 Bft) 100,00 %
05.10.2019 19:48 10,6 C 7,8 C 0,0 C 82 % 1018,7 hPa 0,0 l/m 0 min 0 min 0 W/m 0,0 km/h (0 Bft) 100,00 %
05.10.2019 19:50 10,6 C 7,8 C 0,0 C 82 % 1018,7 hPa 0,0 l/m 0 min 0 min 0 W/m 0,0 km/h (0 Bft) 100,00 %
05.10.2019 19:52 10,5 C 7,8 C 0,0 C 83 % 1018,7 hPa 0,0 l/m 0 min 0 min 0 W/m 0,0 km/h (0 Bft) 95,74 %
05.10.2019 19:54 10,4 C 7,8 C 0,0 C 83 % 1018,7 hPa 0,0 l/m 0 min 0 min 0 W/m 0,0 km/h (0 Bft) 100,00 %
05.10.2019 19:56 10,4 C 7,8 C 0,0 C 83 % 1018,7 hPa 0,0 l/m 0 min 0 min 0 W/m 0,0 km/h (0 Bft) 100,00 %
05.10.2019 19:58 10,3 C 7,8 C 0,0 C 83 % 1018,8 hPa 0,0 l/m 0 min 0 min 0 W/m 0,0 km/h (0 Bft) 100,00 %
05.10.2019 20:00 10,3 C 7,8 C 0,0 C 83 % 1018,8 hPa 0,0 l/m 0 min 0 min 0 W/m 0,0 km/h (0 Bft) 100,00 %
05.10.2019 20:02 10,3 C 7,8 C 0,0 C 83 % 1018,8 hPa 0,0 l/m 0 min 0 min 0 W/m 0,0 km/h (0 Bft) 100,00 %
05.10.2019 20:04 10,2 C 7,8 C 0,0 C 84 % 1018,8 hPa 0,0 l/m 0 min 0 min 0 W/m 0,0 km/h (0 Bft) 100,00 %
05.10.2019 20:06 10,2 C 7,8 C 0,0 C 84 % 1018,8 hPa 0,0 l/m 0 min 0 min 0 W/m 0,0 km/h (0 Bft) 100,00 %
05.10.2019 20:08 10,1 C 7,8 C 0,0 C 84 % 1018,9 hPa 0,0 l/m 0 min 0 min 0 W/m 0,0 km/h (0 Bft) 95,74 %
05.10.2019 20:10 10,1 C 7,8 C 0,0 C 84 % 1018,8 hPa 0,0 l/m 0 min 0 min 0 W/m 0,0 km/h (0 Bft) 97,87 %
05.10.2019 20:12 10,1 C 7,8 C 0,0 C 84 % 1018,9 hPa 0,0 l/m 0 min 0 min 0 W/m 0,0 km/h (0 Bft) 100,00 %
05.10.2019 20:14 10,0 C 7,8 C 0,0 C 85 % 1018,9 hPa 0,0 l/m 0 min 0 min 0 W/m 0,0 km/h (0 Bft) 97,83 %
05.10.2019 20:16 9,9 C 7,8 C 0,0 C 85 % 1019,0 hPa 0,0 l/m 0 min 0 min 0 W/m 0,0 km/h (0 Bft) 97,87 %
05.10.2019 20:18 9,9 C 7,8 C 0,0 C 85 % 1019,0 hPa 0,0 l/m 0 min 0 min 0 W/m 0,0 km/h (0 Bft) 97,87 %
05.10.2019 20:20 9,9 C 7,8 C 0,0 C 85 % 1019,0 hPa 0,0 l/m 0 min 0 min 0 W/m 0,0 km/h (0 Bft) 95,74 %
05.10.2019 20:22 9,8 C 7,8 C 0,0 C 85 % 1019,0 hPa 0,0 l/m 0 min 0 min 0 W/m 0,0 km/h (0 Bft) 97,87 %
05.10.2019 20:24 9,8 C 7,8 C 0,0 C 85 % 1019,1 hPa 0,0 l/m 0 min 0 min 0 W/m 0,0 km/h (0 Bft) 97,83 %
05.10.2019 20:26 9,7 C 7,8 C 0,0 C 85 % 1019,1 hPa 0,0 l/m 0 min 0 min 0 W/m 0,0 km/h (0 Bft) 93,62 %
05.10.2019 20:28 9,7 C 7,8 C 0,0 C 85 % 1019,1 hPa 0,0 l/m 0 min 0 min 0 W/m 0,0 km/h (0 Bft) 93,62 %
05.10.2019 20:30 9,7 C 7,8 C 0,0 C 85 % 1019,1 hPa 0,0 l/m 0 min 0 min 0 W/m 0,0 km/h (0 Bft) 95,74 %
05.10.2019 20:32 9,6 C 7,8 C 0,0 C 85 % 1019,1 hPa 0,0 l/m 0 min 0 min 0 W/m 0,0 km/h (0 Bft) 95,74 %
05.10.2019 20:34 9,6 C 7,8 C 0,0 C 85 % 1019,1 hPa 0,0 l/m 0 min 0 min 0 W/m 0,0 km/h (0 Bft) 95,74 %
05.10.2019 20:36 9,6 C 7,8 C 0,0 C 85 % 1019,0 hPa 0,0 l/m 0 min 0 min 0 W/m 0,0 km/h (0 Bft) 93,48 %
05.10.2019 20:38 9,5 C 7,8 C 0,0 C 85 % 1019,0 hPa 0,0 l/m 0 min 0 min 0 W/m 0,0 km/h (0 Bft) 95,45 %
05.10.2019 20:40 9,5 C 7,2 C 0,0 C 85 % 1018,9 hPa 0,0 l/m 0 min 0 min 0 W/m 0,0 km/h (0 Bft) 91,49 %
05.10.2019 20:42 9,4 C 7,2 C 0,0 C 86 % 1018,9 hPa 0,0 l/m 0 min 0 min 0 W/m 0,0 km/h (0 Bft) 95,74 %
05.10.2019 20:44 9,4 C 7,2 C 0,0 C 86 % 1018,9 hPa 0,0 l/m 0 min 0 min 0 W/m 0,0 km/h (0 Bft) 93,62 %
05.10.2019 20:46 9,4 C 7,2 C 0,0 C 86 % 1018,9 hPa 0,0 l/m 0 min 0 min 0 W/m 0,0 km/h (0 Bft) 93,48 %
05.10.2019 20:48 9,3 C 7,2 C 0,0 C 86 % 1019,0 hPa 0,0 l/m 0 min 0 min 0 W/m 0,0 km/h (0 Bft) 95,74 %
05.10.2019 20:50 9,3 C 7,2 C 0,0 C 86 % 1018,9 hPa 0,0 l/m 0 min 0 min 0 W/m 0,0 km/h (0 Bft) 97,87 %
05.10.2019 20:52 9,3 C 7,2 C 0,0 C 86 % 1019,0 hPa 0,0 l/m 0 min 0 min 0 W/m 0,0 km/h (0 Bft) 97,56 %
05.10.2019 20:54 9,3 C 7,2 C 0,0 C 86 % 1019,0 hPa 0,0 l/m 0 min 0 min 0 W/m 0,0 km/h (0 Bft) 95,74 %
05.10.2019 20:56 9,2 C 7,2 C 0,0 C 86 % 1019,1 hPa 0,0 l/m 0 min 0 min 0 W/m 0,0 km/h (0 Bft) 97,92 %
05.10.2019 20:58 9,2 C 7,2 C 0,0 C 86 % 1019,1 hPa 0,0 l/m 0 min 0 min 0 W/m 0,0 km/h (0 Bft) 91,49 %
05.10.2019 21:00 9,2 C 7,2 C 0,0 C 86 % 1019,2 hPa 0,0 l/m 0 min 0 min 0 W/m 0,0 km/h (0 Bft) 97,87 %
05.10.2019 21:02 9,2 C 7,2 C 0,0 C 87 % 1019,2 hPa 0,0 l/m 0 min 0 min 0 W/m 0,0 km/h (0 Bft) 97,96 %
05.10.2019 21:04 9,1 C 7,2 C 0,0 C 87 % 1019,2 hPa 0,0 l/m 0 min 0 min 0 W/m 0,0 km/h (0 Bft) 97,96 %
05.10.2019 21:06 9,1 C 7,2 C 0,0 C 87 % 1019,1 hPa 0,0 l/m 0 min 0 min 0 W/m 0,0 km/h (0 Bft) 97,87 %
05.10.2019 21:08 9,1 C 7,2 C 0,0 C 87 % 1019,1 hPa 0,0 l/m 0 min 0 min 0 W/m 0,0 km/h (0 Bft) 97,56 %
05.10.2019 21:10 9,1 C 7,2 C 0,0 C 87 % 1019,1 hPa 0,0 l/m 0 min 0 min 0 W/m 0,0 km/h (0 Bft) 97,92 %
05.10.2019 21:12 9,0 C 7,2 C 0,0 C 87 % 1019,1 hPa 0,0 l/m 0 min 0 min 0 W/m 0,0 km/h (0 Bft) 97,92 %
05.10.2019 21:14 9,0 C 7,2 C 0,0 C 87 % 1019,1 hPa 0,0 l/m 0 min 0 min 0 W/m 0,0 km/h (0 Bft) 97,83 %
05.10.2019 21:16 9,0 C 7,2 C 0,0 C 87 % 1019,1 hPa 0,0 l/m 0 min 0 min 0 W/m 0,0 km/h (0 Bft) 95,83 %
05.10.2019 21:18 8,9 C 7,2 C 0,0 C 87 % 1019,2 hPa 0,0 l/m 0 min 0 min 0 W/m 0,0 km/h (0 Bft) 97,92 %
05.10.2019 21:20 8,9 C 7,2 C 0,0 C 87 % 1019,2 hPa 0,0 l/m 0 min 0 min 0 W/m 0,0 km/h (0 Bft) 97,92 %
05.10.2019 21:22 8,9 C 7,2 C 0,0 C 87 % 1019,2 hPa 0,0 l/m 0 min 0 min 0 W/m 0,0 km/h (0 Bft) 100,00 %
05.10.2019 21:24 8,9 C 7,2 C 0,0 C 88 % 1019,2 hPa 0,0 l/m 0 min 0 min 0 W/m 0,0 km/h (0 Bft) 100,00 %
05.10.2019 21:26 8,9 C 7,2 C 0,0 C 88 % 1019,1 hPa 0,0 l/m 0 min 0 min 0 W/m 0,0 km/h (0 Bft) 100,00 %
05.10.2019 21:28 8,8 C 7,2 C 0,0 C 88 % 1019,1 hPa 0,0 l/m 0 min 0 min 0 W/m 0,0 km/h (0 Bft) 97,87 %
05.10.2019 21:30 8,8 C 7,2 C 0,0 C 88 % 1019,2 hPa 0,0 l/m 0 min 0 min 0 W/m 0,0 km/h (0 Bft) 100,00 %
05.10.2019 21:32 8,8 C 7,2 C 0,0 C 88 % 1019,2 hPa 0,0 l/m 0 min 0 min 0 W/m 0,0 km/h (0 Bft) 100,00 %
05.10.2019 21:34 8,8 C 7,2 C 0,0 C 88 % 1019,2 hPa 0,0 l/m 0 min 0 min 0 W/m 0,0 km/h (0 Bft) 100,00 %
05.10.2019 21:36 8,8 C 7,2 C 0,0 C 88 % 1019,2 hPa 0,0 l/m 0 min 0 min 0 W/m 0,0 km/h (0 Bft) 95,24 %
05.10.2019 21:38 8,8 C 7,2 C 0,0 C 88 % 1019,2 hPa 0,0 l/m 0 min 0 min 0 W/m 0,0 km/h (0 Bft) 100,00 %
05.10.2019 21:40 8,7 C 7,2 C 0,0 C 89 % 1019,2 hPa 0,0 l/m 0 min 0 min 0 W/m 0,0 km/h (0 Bft) 100,00 %
05.10.2019 21:42 8,7 C 7,2 C 0,0 C 89 % 1019,3 hPa 0,0 l/m 0 min 0 min 0 W/m 0,0 km/h (0 Bft) 97,92 %
05.10.2019 21:44 8,7 C 7,2 C 0,0 C 89 % 1019,3 hPa 0,0 l/m 0 min 0 min 0 W/m 0,0 km/h (0 Bft) 100,00 %
05.10.2019 21:46 8,7 C 7,2 C 0,0 C 89 % 1019,3 hPa 0,0 l/m 0 min 0 min 0 W/m 0,0 km/h (0 Bft) 100,00 %
05.10.2019 21:48 8,7 C 7,2 C 0,0 C 89 % 1019,4 hPa 0,0 l/m 0 min 0 min 0 W/m 0,0 km/h (0 Bft) 97,87 %
05.10.2019 21:50 8,6 C 7,2 C 0,0 C 89 % 1019,4 hPa 0,0 l/m 0 min 0 min 0 W/m 0,0 km/h (0 Bft) 100,00 %
05.10.2019 21:52 8,6 C 7,2 C 0,0 C 89 % 1019,5 hPa 0,0 l/m 0 min 0 min 0 W/m 0,0 km/h (0 Bft) 100,00 %
05.10.2019 21:54 8,6 C 7,2 C 0,0 C 89 % 1019,5 hPa 0,0 l/m 0 min 0 min 0 W/m 0,0 km/h (0 Bft) 100,00 %
05.10.2019 21:56 8,6 C 7,2 C 0,0 C 89 % 1019,4 hPa 0,0 l/m 0 min 0 min 0 W/m 0,0 km/h (0 Bft) 100,00 %
05.10.2019 21:58 8,6 C 7,2 C 0,0 C 90 % 1019,4 hPa 0,0 l/m 0 min 0 min 0 W/m 0,0 km/h (0 Bft) 97,87 %
05.10.2019 22:00 8,6 C 7,2 C 0,0 C 90 % 1019,4 hPa 0,0 l/m 0 min 0 min 0 W/m 0,0 km/h (0 Bft) 100,00 %
05.10.2019 22:02 8,6 C 7,2 C 0,0 C 90 % 1019,5 hPa 0,0 l/m 0 min 0 min 0 W/m 0,0 km/h (0 Bft) 100,00 %
05.10.2019 22:04 8,5 C 7,2 C 0,0 C 90 % 1019,5 hPa 0,0 l/m 0 min 0 min 0 W/m 0,0 km/h (0 Bft) 97,87 %
05.10.2019 22:06 8,5 C 7,8 C 0,0 C 90 % 1019,5 hPa 0,0 l/m 0 min 0 min 0 W/m 0,0 km/h (0 Bft) 97,87 %
05.10.2019 22:08 8,5 C 7,8 C 0,0 C 90 % 1019,5 hPa 0,0 l/m 0 min 0 min 0 W/m 0,0 km/h (0 Bft) 97,87 %
05.10.2019 22:10 8,5 C 7,8 C 0,0 C 90 % 1019,5 hPa 0,0 l/m 0 min 0 min 0 W/m 0,0 km/h (0 Bft) 100,00 %
05.10.2019 22:12 8,5 C 7,2 C 0,0 C 90 % 1019,5 hPa 0,0 l/m 0 min 0 min 0 W/m 0,0 km/h (0 Bft) 100,00 %
05.10.2019 22:14 8,5 C 7,8 C 0,0 C 90 % 1019,4 hPa 0,0 l/m 0 min 0 min 0 W/m 0,0 km/h (0 Bft) 97,87 %
05.10.2019 22:16 8,4 C 7,2 C 0,0 C 91 % 1019,4 hPa 0,0 l/m 0 min 0 min 0 W/m 0,0 km/h (0 Bft) 95,74 %
05.10.2019 22:18 8,4 C 7,2 C 0,0 C 91 % 1019,4 hPa 0,0 l/m 0 min 0 min 0 W/m 0,0 km/h (0 Bft) 97,87 %
05.10.2019 22:20 8,4 C 7,2 C 0,0 C 91 % 1019,3 hPa 0,0 l/m 0 min 0 min 0 W/m 0,0 km/h (0 Bft) 97,87 %
05.10.2019 22:22 8,4 C 7,2 C 0,0 C 91 % 1019,3 hPa 0,0 l/m 0 min 0 min 0 W/m 0,0 km/h (0 Bft) 97,83 %
05.10.2019 22:24 8,4 C 7,2 C 0,0 C 91 % 1019,3 hPa 0,0 l/m 0 min 0 min 0 W/m 0,0 km/h (0 Bft) 97,87 %
05.10.2019 22:26 8,4 C 7,2 C 0,0 C 91 % 1019,3 hPa 0,0 l/m 0 min 0 min 0 W/m 0,0 km/h (0 Bft) 95,74 %
05.10.2019 22:28 8,4 C 7,2 C 0,0 C 91 % 1019,3 hPa 0,0 l/m 0 min 0 min 0 W/m 0,0 km/h (0 Bft) 97,87 %
05.10.2019 22:30 8,4 C 7,2 C 0,0 C 91 % 1019,4 hPa 0,0 l/m 0 min 0 min 0 W/m 0,0 km/h (0 Bft) 95,74 %
05.10.2019 22:32 8,4 C 7,2 C 0,0 C 91 % 1019,4 hPa 0,0 l/m 0 min 0 min 0 W/m 0,0 km/h (0 Bft) 97,87 %
05.10.2019 22:34 8,4 C 7,2 C 0,0 C 91 % 1019,3 hPa 0,0 l/m 0 min 0 min 0 W/m 0,0 km/h (0 Bft) 97,83 %
05.10.2019 22:36 8,4 C 7,2 C 0,0 C 91 % 1019,3 hPa 0,0 l/m 0 min 0 min 0 W/m 0,0 km/h (0 Bft) 95,74 %
05.10.2019 22:38 8,4 C 7,2 C 0,0 C 91 % 1019,3 hPa 0,0 l/m 0 min 0 min 0 W/m 0,0 km/h (0 Bft) 95,74 %
05.10.2019 22:40 8,4 C 7,2 C 0,0 C 91 % 1019,2 hPa 0,0 l/m 0 min 0 min 0 W/m 0,0 km/h (0 Bft) 95,74 %
05.10.2019 22:42 8,4 C 7,8 C 0,0 C 91 % 1019,2 hPa 0,0 l/m 0 min 0 min 0 W/m 0,0 km/h (0 Bft) 95,74 %
05.10.2019 22:44 8,4 C 7,8 C 0,0 C 91 % 1019,3 hPa 0,0 l/m 0 min 0 min 0 W/m 0,0 km/h (0 Bft) 95,74 %
05.10.2019 22:46 8,4 C 7,8 C 0,0 C 91 % 1019,3 hPa 0,0 l/m 0 min 0 min 0 W/m 0,0 km/h (0 Bft) 95,65 %
05.10.2019 22:48 8,3 C 7,8 C 0,0 C 92 % 1019,3 hPa 0,0 l/m 0 min 0 min 0 W/m 0,0 km/h (0 Bft) 97,87 %
05.10.2019 22:50 8,4 C 7,8 C 0,0 C 92 % 1019,3 hPa 0,0 l/m 0 min 0 min 0 W/m 0,0 km/h (0 Bft) 97,87 %
05.10.2019 22:52 8,4 C 7,8 C 0,0 C 92 % 1019,3 hPa 0,0 l/m 0 min 0 min 0 W/m 0,0 km/h (0 Bft) 95,74 %
05.10.2019 22:54 8,4 C 7,8 C 0,0 C 92 % 1019,3 hPa 0,0 l/m 0 min 0 min 0 W/m 0,0 km/h (0 Bft) 97,87 %
05.10.2019 22:56 8,4 C 7,8 C 0,0 C 92 % 1019,3 hPa 0,0 l/m 0 min 0 min 0 W/m 0,0 km/h (0 Bft) 97,87 %
05.10.2019 22:58 8,4 C 7,8 C 0,0 C 92 % 1019,4 hPa 0,0 l/m 0 min 0 min 0 W/m 0,0 km/h (0 Bft) 95,65 %
05.10.2019 23:00 8,4 C 7,8 C 0,0 C 92 % 1019,4 hPa 0,0 l/m 0 min 0 min 0 W/m 0,0 km/h (0 Bft) 97,87 %
05.10.2019 23:02 8,4 C 7,8 C 0,0 C 92 % 1019,4 hPa 0,0 l/m 0 min 0 min 0 W/m 0,0 km/h (0 Bft) 97,87 %
05.10.2019 23:04 8,4 C 7,8 C 0,0 C 92 % 1019,4 hPa 0,0 l/m 0 min 0 min 0 W/m 0,0 km/h (0 Bft) 97,87 %
05.10.2019 23:06 8,4 C 7,8 C 0,0 C 92 % 1019,4 hPa 0,0 l/m 0 min 0 min 0 W/m 0,0 km/h (0 Bft) 97,87 %
05.10.2019 23:08 8,4 C 7,8 C 0,0 C 92 % 1019,4 hPa 0,0 l/m 0 min 0 min 0 W/m 0,0 km/h (0 Bft) 97,87 %
05.10.2019 23:10 8,4 C 7,8 C 0,0 C 92 % 1019,4 hPa 0,0 l/m 0 min 0 min 0 W/m 0,0 km/h (0 Bft) 95,65 %
05.10.2019 23:12 8,4 C 8,3 C 0,0 C 92 % 1019,4 hPa 0,0 l/m 0 min 0 min 0 W/m 0,0 km/h (0 Bft) 97,87 %
05.10.2019 23:14 8,4 C 8,3 C 0,0 C 92 % 1019,4 hPa 0,0 l/m 0 min 0 min 0 W/m 0,0 km/h (0 Bft) 95,74 %
05.10.2019 23:16 8,4 C 8,3 C 0,0 C 92 % 1019,3 hPa 0,0 l/m 0 min 0 min 0 W/m 0,0 km/h (0 Bft) 97,87 %
05.10.2019 23:18 8,4 C 8,3 C 0,0 C 92 % 1019,3 hPa 0,0 l/m 0 min 0 min 0 W/m 0,0 km/h (0 Bft) 95,74 %
05.10.2019 23:20 8,4 C 8,3 C 0,0 C 92 % 1019,3 hPa 0,0 l/m 0 min 0 min 0 W/m 0,0 km/h (0 Bft) 97,87 %
05.10.2019 23:22 8,4 C 8,3 C 0,0 C 92 % 1019,3 hPa 0,0 l/m 0 min 0 min 0 W/m 0,0 km/h (0 Bft) 95,65 %
05.10.2019 23:24 8,5 C 8,3 C 0,0 C 92 % 1019,3 hPa 0,0 l/m 0 min 0 min 0 W/m 0,0 km/h (0 Bft) 97,87 %
05.10.2019 23:26 8,5 C 8,3 C 0,0 C 92 % 1019,3 hPa 0,0 l/m 0 min 0 min 0 W/m 0,0 km/h (0 Bft) 97,87 %
05.10.2019 23:28 8,5 C 8,3 C 0,0 C 92 % 1019,2 hPa 0,0 l/m 0 min 0 min 0 W/m 0,0 km/h (0 Bft) 100,00 %
05.10.2019 23:30 8,5 C 8,3 C 0,0 C 92 % 1019,2 hPa 0,0 l/m 0 min 0 min 0 W/m 0,0 km/h (0 Bft) 95,74 %
05.10.2019 23:32 8,5 C 8,3 C 0,0 C 92 % 1019,2 hPa 0,0 l/m 0 min 0 min 0 W/m 0,0 km/h (0 Bft) 95,74 %
05.10.2019 23:34 8,6 C 8,3 C 0,0 C 92 % 1019,2 hPa 0,0 l/m 0 min 0 min 0 W/m 0,0 km/h (0 Bft) 93,48 %
05.10.2019 23:36 8,6 C 8,3 C 0,0 C 92 % 1019,2 hPa 0,0 l/m 0 min 0 min 0 W/m 0,0 km/h (0 Bft) 93,62 %
05.10.2019 23:38 8,6 C 8,3 C 0,0 C 92 % 1019,2 hPa 0,0 l/m 0 min 0 min 0 W/m 0,0 km/h (0 Bft) 95,74 %
05.10.2019 23:40 8,6 C 8,3 C 0,0 C 92 % 1019,2 hPa 0,0 l/m 0 min 0 min 0 W/m 0,0 km/h (0 Bft) 97,87 %
05.10.2019 23:42 8,6 C 8,3 C 0,0 C 92 % 1019,2 hPa 0,0 l/m 0 min 0 min 0 W/m 0,0 km/h (0 Bft) 97,87 %
05.10.2019 23:44 8,6 C 8,3 C 0,0 C 92 % 1019,3 hPa 0,0 l/m 0 min 0 min 0 W/m 3,2 km/h (1 Bft) 97,83 %
05.10.2019 23:46 8,6 C 8,3 C 0,0 C 92 % 1019,3 hPa 0,0 l/m 0 min 0 min 0 W/m 0,0 km/h (0 Bft) 95,74 %
05.10.2019 23:48 8,6 C 8,3 C 0,0 C 92 % 1019,3 hPa 0,0 l/m 0 min 0 min 0 W/m 3,2 km/h (1 Bft) 97,87 %
05.10.2019 23:50 8,6 C 8,3 C 0,0 C 92 % 1019,3 hPa 0,0 l/m 0 min 0 min 0 W/m 3,2 km/h (1 Bft) 97,87 %
05.10.2019 23:52 8,6 C 8,3 C 0,0 C 92 % 1019,3 hPa 0,0 l/m 0 min 0 min 0 W/m 0,0 km/h (0 Bft) 95,74 %
05.10.2019 23:54 8,6 C 7,8 C 0,0 C 92 % 1019,4 hPa 0,0 l/m 0 min 0 min 0 W/m 0,0 km/h (0 Bft) 95,74 %
05.10.2019 23:56 8,6 C 7,8 C 0,0 C 92 % 1019,4 hPa 0,0 l/m 0 min 0 min 0 W/m 0,0 km/h (0 Bft) 97,83 %
05.10.2019 23:58 8,6 C 7,8 C 0,0 C 92 % 1019,3 hPa 0,0 l/m 0 min 0 min 0 W/m 0,0 km/h (0 Bft) 97,87 %
_ Min-Zeit 07:22 06:42 00:00 16:34 00:00 - - - - 00:56 07:02
Minimum _ 7,7 C 6,1 C 0,0 C 71 % 1007,2 hPa - - - - 0,0 km/h (0 Bft) 57,14 %
_ Max-Zeit 16:42 16:30 00:00 02:28 21:52 01:06 10:36 00:56 14:44 00:34 00:38
Maximum _ 14,6 C 20,6 C 0,0 C 99 % 1019,5 hPa 0,2 l/m 2 min 2 min 671 W/m 16,1 km/h
W (3 Bft)
100,00 %
Durchschnitt _ 10,3 C 10,1 C 0,0 C 90 % 1015,1 hPa #0,2 l/m #3:30 h #26 min. 174 W/m 3,0 km/h (1 Bft) 97,39 %
© 2019 W. Hausmann